<?xml version="1.0" encoding="UTF-8" standalone="yes"?>
<gpx xmlns="http://www.topografix.com/GPX/1/1" xmlns:xsi="http://www.w3.org/2001/XMLSchema-instance" version="1.1" creator="MagicMaps Tour Explorer" xsi:schemaLocation="http://www.topografix.com/GPX/1/1 http://www.topografix.com/GPX/1/1/gpx.xsd">
  <trk>
    <name>kreuzspitze-s</name>
    <trkseg>
      <trkpt lat="47.536608484" lon="10.889078938">
        <ele>1099.4</ele>
        <time>2021-07-12T05:41:59Z</time>
      </trkpt>
      <trkpt lat="47.536615105" lon="10.889072819">
        <ele>1101.3</ele>
        <time>2021-07-12T05:42:20Z</time>
      </trkpt>
      <trkpt lat="47.536606891" lon="10.889116824">
        <ele>1101.8</ele>
        <time>2021-07-12T05:44:20Z</time>
      </trkpt>
      <trkpt lat="47.536602784" lon="10.889099557">
        <ele>1101.8</ele>
        <time>2021-07-12T05:45:12Z</time>
      </trkpt>
      <trkpt lat="47.536657015" lon="10.889131492">
        <ele>1101.3</ele>
        <time>2021-07-12T05:45:56Z</time>
      </trkpt>
      <trkpt lat="47.536703199" lon="10.889314134">
        <ele>1100.4</ele>
        <time>2021-07-12T05:46:15Z</time>
      </trkpt>
      <trkpt lat="47.536655338" lon="10.889512869">
        <ele>1098.4</ele>
        <time>2021-07-12T05:46:33Z</time>
      </trkpt>
      <trkpt lat="47.536617788" lon="10.889578164">
        <ele>1098.4</ele>
        <time>2021-07-12T05:46:44Z</time>
      </trkpt>
      <trkpt lat="47.536576884" lon="10.889717387">
        <ele>1098.0</ele>
        <time>2021-07-12T05:46:57Z</time>
      </trkpt>
      <trkpt lat="47.536450401" lon="10.889912350">
        <ele>1098.4</ele>
        <time>2021-07-12T05:47:14Z</time>
      </trkpt>
      <trkpt lat="47.536203051" lon="10.890164226">
        <ele>1099.9</ele>
        <time>2021-07-12T05:47:48Z</time>
      </trkpt>
      <trkpt lat="47.536121160" lon="10.890302025">
        <ele>1099.9</ele>
        <time>2021-07-12T05:48:13Z</time>
      </trkpt>
      <trkpt lat="47.535964702" lon="10.890426565">
        <ele>1089.6</ele>
        <time>2021-07-12T05:48:28Z</time>
      </trkpt>
      <trkpt lat="47.535827399" lon="10.890567791">
        <ele>1088.2</ele>
        <time>2021-07-12T05:48:47Z</time>
      </trkpt>
      <trkpt lat="47.535626705" lon="10.890733312">
        <ele>1087.9</ele>
        <time>2021-07-12T05:49:08Z</time>
      </trkpt>
      <trkpt lat="47.535479751" lon="10.890914051">
        <ele>1087.4</ele>
        <time>2021-07-12T05:49:21Z</time>
      </trkpt>
      <trkpt lat="47.535406274" lon="10.891004421">
        <ele>1088.8</ele>
        <time>2021-07-12T05:49:41Z</time>
      </trkpt>
      <trkpt lat="47.535324241" lon="10.891067907">
        <ele>1090.2</ele>
        <time>2021-07-12T05:49:53Z</time>
      </trkpt>
      <trkpt lat="47.535260414" lon="10.891118761">
        <ele>1091.1</ele>
        <time>2021-07-12T05:50:36Z</time>
      </trkpt>
      <trkpt lat="47.535141231" lon="10.891183633">
        <ele>1105.2</ele>
        <time>2021-07-12T05:50:54Z</time>
      </trkpt>
      <trkpt lat="47.535060933" lon="10.891229231">
        <ele>1105.2</ele>
        <time>2021-07-12T05:51:04Z</time>
      </trkpt>
      <trkpt lat="47.534902934" lon="10.891465014">
        <ele>1106.6</ele>
        <time>2021-07-12T05:51:26Z</time>
      </trkpt>
      <trkpt lat="47.534806794" lon="10.891665090">
        <ele>1107.6</ele>
        <time>2021-07-12T05:51:54Z</time>
      </trkpt>
      <trkpt lat="47.534802938" lon="10.891692918">
        <ele>1107.6</ele>
        <time>2021-07-12T05:51:56Z</time>
      </trkpt>
      <trkpt lat="47.534867478" lon="10.891718231">
        <ele>1108.5</ele>
        <time>2021-07-12T05:52:05Z</time>
      </trkpt>
      <trkpt lat="47.535088681" lon="10.891710514">
        <ele>1095.8</ele>
        <time>2021-07-12T05:52:24Z</time>
      </trkpt>
      <trkpt lat="47.535394882" lon="10.891694956">
        <ele>1093.6</ele>
        <time>2021-07-12T05:52:58Z</time>
      </trkpt>
      <trkpt lat="47.535583516" lon="10.891715030">
        <ele>1093.4</ele>
        <time>2021-07-12T05:53:16Z</time>
      </trkpt>
      <trkpt lat="47.535825027" lon="10.891759470">
        <ele>1116.7</ele>
        <time>2021-07-12T05:53:34Z</time>
      </trkpt>
      <trkpt lat="47.535919324" lon="10.891936999">
        <ele>1117.2</ele>
        <time>2021-07-12T05:53:47Z</time>
      </trkpt>
      <trkpt lat="47.535938853" lon="10.892194491">
        <ele>1116.7</ele>
        <time>2021-07-12T05:54:03Z</time>
      </trkpt>
      <trkpt lat="47.536019403" lon="10.892630937">
        <ele>1116.2</ele>
        <time>2021-07-12T05:54:24Z</time>
      </trkpt>
      <trkpt lat="47.535979673" lon="10.892792037">
        <ele>1116.7</ele>
        <time>2021-07-12T05:54:34Z</time>
      </trkpt>
      <trkpt lat="47.535901357" lon="10.893174808">
        <ele>1104.3</ele>
        <time>2021-07-12T05:54:59Z</time>
      </trkpt>
      <trkpt lat="47.535854615" lon="10.893357145">
        <ele>1117.2</ele>
        <time>2021-07-12T05:55:10Z</time>
      </trkpt>
      <trkpt lat="47.535753194" lon="10.893777497">
        <ele>1118.2</ele>
        <time>2021-07-12T05:55:33Z</time>
      </trkpt>
      <trkpt lat="47.535738945" lon="10.894117886">
        <ele>1118.6</ele>
        <time>2021-07-12T05:55:53Z</time>
      </trkpt>
      <trkpt lat="47.535752859" lon="10.894202376">
        <ele>1118.6</ele>
        <time>2021-07-12T05:55:58Z</time>
      </trkpt>
      <trkpt lat="47.535709105" lon="10.894420054">
        <ele>1118.6</ele>
        <time>2021-07-12T05:56:10Z</time>
      </trkpt>
      <trkpt lat="47.535605505" lon="10.894644605">
        <ele>1118.6</ele>
        <time>2021-07-12T05:56:25Z</time>
      </trkpt>
      <trkpt lat="47.535446249" lon="10.894873934">
        <ele>1119.1</ele>
        <time>2021-07-12T05:56:43Z</time>
      </trkpt>
      <trkpt lat="47.535232594" lon="10.895019695">
        <ele>1120.5</ele>
        <time>2021-07-12T05:56:59Z</time>
      </trkpt>
      <trkpt lat="47.535079122" lon="10.895242402">
        <ele>1121.0</ele>
        <time>2021-07-12T05:57:16Z</time>
      </trkpt>
      <trkpt lat="47.534973007" lon="10.895588743">
        <ele>1121.0</ele>
        <time>2021-07-12T05:57:38Z</time>
      </trkpt>
      <trkpt lat="47.534998084" lon="10.896105355">
        <ele>1106.8</ele>
        <time>2021-07-12T05:58:09Z</time>
      </trkpt>
      <trkpt lat="47.535057082" lon="10.896346654">
        <ele>1107.8</ele>
        <time>2021-07-12T05:58:24Z</time>
      </trkpt>
      <trkpt lat="47.535249216" lon="10.896699055">
        <ele>1108.9</ele>
        <time>2021-07-12T05:59:05Z</time>
      </trkpt>
      <trkpt lat="47.535388749" lon="10.896945186">
        <ele>1131.6</ele>
        <time>2021-07-12T05:59:29Z</time>
      </trkpt>
      <trkpt lat="47.535599487" lon="10.897283052">
        <ele>1111.5</ele>
        <time>2021-07-12T06:00:14Z</time>
      </trkpt>
      <trkpt lat="47.535734363" lon="10.897832706">
        <ele>1118.5</ele>
        <time>2021-07-12T06:00:17Z</time>
      </trkpt>
      <trkpt lat="47.535676448" lon="10.898069791">
        <ele>1123.8</ele>
        <time>2021-07-12T06:01:13Z</time>
      </trkpt>
      <trkpt lat="47.535553823" lon="10.898410838">
        <ele>1133.6</ele>
        <time>2021-07-12T06:01:49Z</time>
      </trkpt>
      <trkpt lat="47.535495467" lon="10.898674479">
        <ele>1139.2</ele>
        <time>2021-07-12T06:02:08Z</time>
      </trkpt>
      <trkpt lat="47.535562352" lon="10.898982506">
        <ele>1141.2</ele>
      </trkpt>
      <trkpt lat="47.535693507" lon="10.899213130">
        <ele>1139.8</ele>
      </trkpt>
      <trkpt lat="47.535786270" lon="10.899588532">
        <ele>1140.2</ele>
      </trkpt>
      <trkpt lat="47.535940221" lon="10.900072446">
        <ele>1141.0</ele>
      </trkpt>
      <trkpt lat="47.536015215" lon="10.900433920">
        <ele>1143.4</ele>
      </trkpt>
      <trkpt lat="47.536106432" lon="10.900902283">
        <ele>1148.4</ele>
      </trkpt>
      <trkpt lat="47.536172650" lon="10.901250155">
        <ele>1151.7</ele>
      </trkpt>
      <trkpt lat="47.536258175" lon="10.901519001">
        <ele>1153.3</ele>
      </trkpt>
      <trkpt lat="47.536380993" lon="10.901709470">
        <ele>1152.8</ele>
      </trkpt>
      <trkpt lat="47.536483621" lon="10.902032086">
        <ele>1156.0</ele>
      </trkpt>
      <trkpt lat="47.536594801" lon="10.902381589">
        <ele>1159.1</ele>
      </trkpt>
      <trkpt lat="47.536714972" lon="10.902731419">
        <ele>1162.2</ele>
      </trkpt>
      <trkpt lat="47.536835143" lon="10.903081250">
        <ele>1164.7</ele>
      </trkpt>
      <trkpt lat="47.536927892" lon="10.903456666">
        <ele>1167.5</ele>
      </trkpt>
      <trkpt lat="47.537048061" lon="10.903806500">
        <ele>1168.8</ele>
      </trkpt>
      <trkpt lat="47.537114049" lon="10.904167662">
        <ele>1173.6</ele>
      </trkpt>
      <trkpt lat="47.537199347" lon="10.904449796">
        <ele>1175.8</ele>
      </trkpt>
      <trkpt lat="47.537318188" lon="10.904879314">
        <ele>1181.0</ele>
      </trkpt>
      <trkpt lat="47.537402601" lon="10.905214571">
        <ele>1185.2</ele>
      </trkpt>
      <trkpt lat="47.537486350" lon="10.905589668">
        <ele>1190.4</ele>
      </trkpt>
      <trkpt lat="47.537533906" lon="10.905976743">
        <ele>1197.3</ele>
      </trkpt>
      <trkpt lat="47.537599005" lon="10.906391030">
        <ele>1204.4</ele>
      </trkpt>
      <trkpt lat="47.537699853" lon="10.906819903">
        <ele>1206.4</ele>
      </trkpt>
      <trkpt lat="47.537452468" lon="10.906545172">
        <ele>1214.6</ele>
      </trkpt>
      <trkpt lat="47.537164313" lon="10.906016496">
        <ele>1220.7</ele>
        <time>2021-07-12T06:15:48Z</time>
      </trkpt>
      <trkpt lat="47.537186213" lon="10.906322911">
        <ele>1226.1</ele>
        <time>2021-07-12T06:15:52Z</time>
      </trkpt>
      <trkpt lat="47.537236624" lon="10.906553697">
        <ele>1251.3</ele>
        <time>2021-07-12T06:16:06Z</time>
      </trkpt>
      <trkpt lat="47.537247017" lon="10.906760646">
        <ele>1253.7</ele>
        <time>2021-07-12T06:16:22Z</time>
      </trkpt>
      <trkpt lat="47.537247998" lon="10.906936394">
        <ele>1232.7</ele>
        <time>2021-07-12T06:16:46Z</time>
      </trkpt>
      <trkpt lat="47.537213238" lon="10.907084607">
        <ele>1267.2</ele>
        <time>2021-07-12T06:18:21Z</time>
      </trkpt>
      <trkpt lat="47.537157498" lon="10.907274540">
        <ele>1269.6</ele>
        <time>2021-07-12T06:18:43Z</time>
      </trkpt>
      <trkpt lat="47.537163198" lon="10.907359365">
        <ele>1270.5</ele>
        <time>2021-07-12T06:18:49Z</time>
      </trkpt>
      <trkpt lat="47.537116930" lon="10.907595735">
        <ele>1272.4</ele>
        <time>2021-07-12T06:19:05Z</time>
      </trkpt>
      <trkpt lat="47.537106536" lon="10.907752393">
        <ele>1274.4</ele>
        <time>2021-07-12T06:19:19Z</time>
      </trkpt>
      <trkpt lat="47.537050713" lon="10.907673687">
        <ele>1276.8</ele>
        <time>2021-07-12T06:19:37Z</time>
      </trkpt>
      <trkpt lat="47.537067728" lon="10.907532871">
        <ele>1277.7</ele>
        <time>2021-07-12T06:19:55Z</time>
      </trkpt>
      <trkpt lat="47.537044762" lon="10.907367580">
        <ele>1280.1</ele>
        <time>2021-07-12T06:20:15Z</time>
      </trkpt>
      <trkpt lat="47.536978629" lon="10.907401694">
        <ele>1283.5</ele>
        <time>2021-07-12T06:20:32Z</time>
      </trkpt>
      <trkpt lat="47.536958512" lon="10.907635381">
        <ele>1286.4</ele>
        <time>2021-07-12T06:20:55Z</time>
      </trkpt>
      <trkpt lat="47.536816271" lon="10.908008879">
        <ele>1291.2</ele>
        <time>2021-07-12T06:21:31Z</time>
      </trkpt>
      <trkpt lat="47.536775451" lon="10.907851048">
        <ele>1294.5</ele>
        <time>2021-07-12T06:21:50Z</time>
      </trkpt>
      <trkpt lat="47.536766650" lon="10.907681398">
        <ele>1297.0</ele>
        <time>2021-07-12T06:22:11Z</time>
      </trkpt>
      <trkpt lat="47.536782408" lon="10.907488363">
        <ele>1299.8</ele>
        <time>2021-07-12T06:22:35Z</time>
      </trkpt>
      <trkpt lat="47.536640754" lon="10.907649798">
        <ele>1302.7</ele>
        <time>2021-07-12T06:23:01Z</time>
      </trkpt>
      <trkpt lat="47.536596917" lon="10.907991026">
        <ele>1307.5</ele>
        <time>2021-07-12T06:23:43Z</time>
      </trkpt>
      <trkpt lat="47.536621559" lon="10.908009466">
        <ele>1308.0</ele>
        <time>2021-07-12T06:24:09Z</time>
      </trkpt>
      <trkpt lat="47.536570597" lon="10.908067217">
        <ele>1308.5</ele>
        <time>2021-07-12T06:26:02Z</time>
      </trkpt>
      <trkpt lat="47.536513601" lon="10.908218343">
        <ele>1308.5</ele>
        <time>2021-07-12T06:26:20Z</time>
      </trkpt>
      <trkpt lat="47.536509409" lon="10.908295959">
        <ele>1311.4</ele>
        <time>2021-07-12T06:26:32Z</time>
      </trkpt>
      <trkpt lat="47.536452999" lon="10.908122622">
        <ele>1314.7</ele>
        <time>2021-07-12T06:26:52Z</time>
      </trkpt>
      <trkpt lat="47.536484012" lon="10.907950625">
        <ele>1316.7</ele>
        <time>2021-07-12T06:27:09Z</time>
      </trkpt>
      <trkpt lat="47.536543021" lon="10.907896059">
        <ele>1319.1</ele>
        <time>2021-07-12T06:27:26Z</time>
      </trkpt>
      <trkpt lat="47.536395835" lon="10.908057075">
        <ele>1321.5</ele>
        <time>2021-07-12T06:27:49Z</time>
      </trkpt>
      <trkpt lat="47.536299108" lon="10.908260085">
        <ele>1324.3</ele>
        <time>2021-07-12T06:28:10Z</time>
      </trkpt>
      <trkpt lat="47.536232555" lon="10.908476086">
        <ele>1326.8</ele>
        <time>2021-07-12T06:28:30Z</time>
      </trkpt>
      <trkpt lat="47.536173463" lon="10.908435937">
        <ele>1329.2</ele>
        <time>2021-07-12T06:28:46Z</time>
      </trkpt>
      <trkpt lat="47.536120322" lon="10.908309789">
        <ele>1330.6</ele>
        <time>2021-07-12T06:29:00Z</time>
      </trkpt>
      <trkpt lat="47.536108503" lon="10.908247847">
        <ele>1330.6</ele>
        <time>2021-07-12T06:29:05Z</time>
      </trkpt>
      <trkpt lat="47.536152257" lon="10.908061936">
        <ele>1332.5</ele>
        <time>2021-07-12T06:29:23Z</time>
      </trkpt>
      <trkpt lat="47.535954947" lon="10.908093117">
        <ele>1337.8</ele>
        <time>2021-07-12T06:29:56Z</time>
      </trkpt>
      <trkpt lat="47.535872888" lon="10.908337953">
        <ele>1341.2</ele>
        <time>2021-07-12T06:30:19Z</time>
      </trkpt>
      <trkpt lat="47.535825111" lon="10.908551356">
        <ele>1344.1</ele>
        <time>2021-07-12T06:30:39Z</time>
      </trkpt>
      <trkpt lat="47.535795439" lon="10.908558983">
        <ele>1345.0</ele>
        <time>2021-07-12T06:31:24Z</time>
      </trkpt>
      <trkpt lat="47.535810023" lon="10.908603827">
        <ele>1345.5</ele>
        <time>2021-07-12T06:31:48Z</time>
      </trkpt>
      <trkpt lat="47.535793511" lon="10.908665182">
        <ele>1346.5</ele>
        <time>2021-07-12T06:32:05Z</time>
      </trkpt>
      <trkpt lat="47.535740454" lon="10.908587901">
        <ele>1348.4</ele>
        <time>2021-07-12T06:32:17Z</time>
      </trkpt>
      <trkpt lat="47.535693012" lon="10.908363853">
        <ele>1351.3</ele>
        <time>2021-07-12T06:32:39Z</time>
      </trkpt>
      <trkpt lat="47.535736263" lon="10.908260420">
        <ele>1353.2</ele>
        <time>2021-07-12T06:32:56Z</time>
      </trkpt>
      <trkpt lat="47.535598297" lon="10.908323955">
        <ele>1355.6</ele>
        <time>2021-07-12T06:33:16Z</time>
      </trkpt>
      <trkpt lat="47.535528978" lon="10.908441804">
        <ele>1358.0</ele>
        <time>2021-07-12T06:33:33Z</time>
      </trkpt>
      <trkpt lat="47.535513640" lon="10.908564264">
        <ele>1359.9</ele>
        <time>2021-07-12T06:33:47Z</time>
      </trkpt>
      <trkpt lat="47.535524787" lon="10.908750175">
        <ele>1362.3</ele>
        <time>2021-07-12T06:34:03Z</time>
      </trkpt>
      <trkpt lat="47.535629645" lon="10.908858134">
        <ele>1364.2</ele>
        <time>2021-07-12T06:34:20Z</time>
      </trkpt>
      <trkpt lat="47.535586897" lon="10.908883195">
        <ele>1366.2</ele>
        <time>2021-07-12T06:34:38Z</time>
      </trkpt>
      <trkpt lat="47.535488578" lon="10.908801975">
        <ele>1367.6</ele>
        <time>2021-07-12T06:34:58Z</time>
      </trkpt>
      <trkpt lat="47.535382966" lon="10.908784960">
        <ele>1370.0</ele>
        <time>2021-07-12T06:35:10Z</time>
      </trkpt>
      <trkpt lat="47.535324628" lon="10.908687310">
        <ele>1372.4</ele>
        <time>2021-07-12T06:35:26Z</time>
      </trkpt>
      <trkpt lat="47.535264278" lon="10.908718994">
        <ele>1375.8</ele>
        <time>2021-07-12T06:35:42Z</time>
      </trkpt>
      <trkpt lat="47.535279365" lon="10.908859558">
        <ele>1378.7</ele>
        <time>2021-07-12T06:36:03Z</time>
      </trkpt>
      <trkpt lat="47.535344073" lon="10.908868946">
        <ele>1379.6</ele>
        <time>2021-07-12T06:36:08Z</time>
      </trkpt>
      <trkpt lat="47.535346337" lon="10.909236409">
        <ele>1384.0</ele>
        <time>2021-07-12T06:36:44Z</time>
      </trkpt>
      <trkpt lat="47.535334267" lon="10.909281001">
        <ele>1385.9</ele>
        <time>2021-07-12T06:37:00Z</time>
      </trkpt>
      <trkpt lat="47.535143076" lon="10.908919992">
        <ele>1392.1</ele>
        <time>2021-07-12T06:37:53Z</time>
      </trkpt>
      <trkpt lat="47.535025058" lon="10.908844555">
        <ele>1393.6</ele>
        <time>2021-07-12T06:38:12Z</time>
      </trkpt>
      <trkpt lat="47.534993794" lon="10.908628721">
        <ele>1396.0</ele>
        <time>2021-07-12T06:38:34Z</time>
      </trkpt>
      <trkpt lat="47.534931768" lon="10.908657219">
        <ele>1397.4</ele>
        <time>2021-07-12T06:38:48Z</time>
      </trkpt>
      <trkpt lat="47.534877704" lon="10.908770291">
        <ele>1400.8</ele>
        <time>2021-07-12T06:39:06Z</time>
      </trkpt>
      <trkpt lat="47.534913327" lon="10.908904904">
        <ele>1403.2</ele>
        <time>2021-07-12T06:39:25Z</time>
      </trkpt>
      <trkpt lat="47.534867311" lon="10.908950502">
        <ele>1406.5</ele>
        <time>2021-07-12T06:39:47Z</time>
      </trkpt>
      <trkpt lat="47.534895642" lon="10.909059551">
        <ele>1405.6</ele>
        <time>2021-07-12T06:40:07Z</time>
      </trkpt>
      <trkpt lat="47.534893630" lon="10.909317629">
        <ele>1409.0</ele>
        <time>2021-07-12T06:40:27Z</time>
      </trkpt>
      <trkpt lat="47.534651477" lon="10.908843465">
        <ele>1417.6</ele>
        <time>2021-07-12T06:41:28Z</time>
      </trkpt>
      <trkpt lat="47.534654075" lon="10.908958130">
        <ele>1420.5</ele>
        <time>2021-07-12T06:41:48Z</time>
      </trkpt>
      <trkpt lat="47.534689112" lon="10.909147477">
        <ele>1423.8</ele>
        <time>2021-07-12T06:42:09Z</time>
      </trkpt>
      <trkpt lat="47.534654494" lon="10.909315366">
        <ele>1426.7</ele>
        <time>2021-07-12T06:42:35Z</time>
      </trkpt>
      <trkpt lat="47.534625577" lon="10.909215538">
        <ele>1429.1</ele>
        <time>2021-07-12T06:42:57Z</time>
      </trkpt>
      <trkpt lat="47.534554666" lon="10.909253508">
        <ele>1431.1</ele>
        <time>2021-07-12T06:43:14Z</time>
      </trkpt>
      <trkpt lat="47.534463555" lon="10.909418967">
        <ele>1433.5</ele>
        <time>2021-07-12T06:43:34Z</time>
      </trkpt>
      <trkpt lat="47.534437235" lon="10.909404466">
        <ele>1435.4</ele>
        <time>2021-07-12T06:43:48Z</time>
      </trkpt>
      <trkpt lat="47.534423154" lon="10.909263231">
        <ele>1437.3</ele>
        <time>2021-07-12T06:44:03Z</time>
      </trkpt>
      <trkpt lat="47.534374706" lon="10.909322491">
        <ele>1439.7</ele>
        <time>2021-07-12T06:44:20Z</time>
      </trkpt>
      <trkpt lat="47.534310333" lon="10.909480993">
        <ele>1442.1</ele>
        <time>2021-07-12T06:44:37Z</time>
      </trkpt>
      <trkpt lat="47.534289630" lon="10.909491973">
        <ele>1442.6</ele>
        <time>2021-07-12T06:44:39Z</time>
      </trkpt>
      <trkpt lat="47.534298347" lon="10.909483926">
        <ele>1444.0</ele>
        <time>2021-07-12T06:44:55Z</time>
      </trkpt>
      <trkpt lat="47.534277057" lon="10.909298267">
        <ele>1449.8</ele>
        <time>2021-07-12T06:45:29Z</time>
      </trkpt>
      <trkpt lat="47.534032054" lon="10.909757260">
        <ele>1456.0</ele>
        <time>2021-07-12T06:46:29Z</time>
      </trkpt>
      <trkpt lat="47.533939183" lon="10.909915259">
        <ele>1458.9</ele>
        <time>2021-07-12T06:46:49Z</time>
      </trkpt>
      <trkpt lat="47.533904230" lon="10.910098068">
        <ele>1460.4</ele>
        <time>2021-07-12T06:47:06Z</time>
      </trkpt>
      <trkpt lat="47.533816183" lon="10.910386139">
        <ele>1451.3</ele>
        <time>2021-07-12T06:47:42Z</time>
      </trkpt>
      <trkpt lat="47.533713039" lon="10.910449941">
        <ele>1466.6</ele>
        <time>2021-07-12T06:47:55Z</time>
      </trkpt>
      <trkpt lat="47.533663418" lon="10.910449522">
        <ele>1468.5</ele>
        <time>2021-07-12T06:48:09Z</time>
      </trkpt>
      <trkpt lat="47.533611366" lon="10.910348855">
        <ele>1470.0</ele>
        <time>2021-07-12T06:48:22Z</time>
      </trkpt>
      <trkpt lat="47.533606254" lon="10.910430914">
        <ele>1471.4</ele>
        <time>2021-07-12T06:48:36Z</time>
      </trkpt>
      <trkpt lat="47.533578342" lon="10.910493443">
        <ele>1473.4</ele>
        <time>2021-07-12T06:48:50Z</time>
      </trkpt>
      <trkpt lat="47.533515478" lon="10.910409037">
        <ele>1475.3</ele>
        <time>2021-07-12T06:49:05Z</time>
      </trkpt>
      <trkpt lat="47.533539282" lon="10.910570137">
        <ele>1477.7</ele>
        <time>2021-07-12T06:49:41Z</time>
      </trkpt>
      <trkpt lat="47.533434341" lon="10.910404343">
        <ele>1480.6</ele>
        <time>2021-07-12T06:50:03Z</time>
      </trkpt>
      <trkpt lat="47.533395700" lon="10.910545411">
        <ele>1483.0</ele>
        <time>2021-07-12T06:50:18Z</time>
      </trkpt>
      <trkpt lat="47.533408273" lon="10.910653453">
        <ele>1485.4</ele>
        <time>2021-07-12T06:50:34Z</time>
      </trkpt>
      <trkpt lat="47.533319676" lon="10.910458658">
        <ele>1488.3</ele>
        <time>2021-07-12T06:51:47Z</time>
      </trkpt>
      <trkpt lat="47.533284221" lon="10.910555050">
        <ele>1489.7</ele>
        <time>2021-07-12T06:51:59Z</time>
      </trkpt>
      <trkpt lat="47.533302661" lon="10.910734758">
        <ele>1492.1</ele>
        <time>2021-07-12T06:52:17Z</time>
      </trkpt>
      <trkpt lat="47.533283215" lon="10.910731489">
        <ele>1493.1</ele>
        <time>2021-07-12T06:52:28Z</time>
      </trkpt>
      <trkpt lat="47.533193612" lon="10.910542393">
        <ele>1496.0</ele>
        <time>2021-07-12T06:52:57Z</time>
      </trkpt>
      <trkpt lat="47.533166288" lon="10.910569970">
        <ele>1497.9</ele>
        <time>2021-07-12T06:53:14Z</time>
      </trkpt>
      <trkpt lat="47.533109710" lon="10.910921926">
        <ele>1503.2</ele>
        <time>2021-07-12T06:53:57Z</time>
      </trkpt>
      <trkpt lat="47.533081043" lon="10.910811704">
        <ele>1504.6</ele>
        <time>2021-07-12T06:54:10Z</time>
      </trkpt>
      <trkpt lat="47.532966044" lon="10.910622859">
        <ele>1508.0</ele>
        <time>2021-07-12T06:54:41Z</time>
      </trkpt>
      <trkpt lat="47.532998398" lon="10.910761245">
        <ele>1509.4</ele>
        <time>2021-07-12T06:54:55Z</time>
      </trkpt>
      <trkpt lat="47.532990938" lon="10.910910107">
        <ele>1510.8</ele>
        <time>2021-07-12T06:55:10Z</time>
      </trkpt>
      <trkpt lat="47.532943497" lon="10.911077661">
        <ele>1512.8</ele>
        <time>2021-07-12T06:55:29Z</time>
      </trkpt>
      <trkpt lat="47.532967469" lon="10.911207246">
        <ele>1514.7</ele>
        <time>2021-07-12T06:55:44Z</time>
      </trkpt>
      <trkpt lat="47.532902677" lon="10.911141029">
        <ele>1516.6</ele>
        <time>2021-07-12T06:55:57Z</time>
      </trkpt>
      <trkpt lat="47.532880381" lon="10.911037177">
        <ele>1517.6</ele>
        <time>2021-07-12T06:56:10Z</time>
      </trkpt>
      <trkpt lat="47.532819696" lon="10.910958555">
        <ele>1519.5</ele>
        <time>2021-07-12T06:56:23Z</time>
      </trkpt>
      <trkpt lat="47.532788515" lon="10.910845147">
        <ele>1520.9</ele>
        <time>2021-07-12T06:56:35Z</time>
      </trkpt>
      <trkpt lat="47.532764040" lon="10.910835843">
        <ele>1522.4</ele>
        <time>2021-07-12T06:56:48Z</time>
      </trkpt>
      <trkpt lat="47.532738978" lon="10.910948077">
        <ele>1523.8</ele>
        <time>2021-07-12T06:57:01Z</time>
      </trkpt>
      <trkpt lat="47.532746522" lon="10.911055533">
        <ele>1525.3</ele>
        <time>2021-07-12T06:57:14Z</time>
      </trkpt>
      <trkpt lat="47.532687346" lon="10.911042793">
        <ele>1527.2</ele>
        <time>2021-07-12T06:57:31Z</time>
      </trkpt>
      <trkpt lat="47.532635461" lon="10.910936091">
        <ele>1528.6</ele>
        <time>2021-07-12T06:57:46Z</time>
      </trkpt>
      <trkpt lat="47.532609645" lon="10.910654878">
        <ele>1531.5</ele>
        <time>2021-07-12T06:58:25Z</time>
      </trkpt>
      <trkpt lat="47.532543847" lon="10.910701314">
        <ele>1533.4</ele>
        <time>2021-07-12T06:58:38Z</time>
      </trkpt>
      <trkpt lat="47.532387776" lon="10.911157206">
        <ele>1539.7</ele>
        <time>2021-07-12T06:59:41Z</time>
      </trkpt>
      <trkpt lat="47.532379646" lon="10.911248317">
        <ele>1540.2</ele>
        <time>2021-07-12T06:59:49Z</time>
      </trkpt>
      <trkpt lat="47.532347459" lon="10.911263907">
        <ele>1542.1</ele>
        <time>2021-07-12T07:00:01Z</time>
      </trkpt>
      <trkpt lat="47.532272525" lon="10.911127953">
        <ele>1544.0</ele>
        <time>2021-07-12T07:00:43Z</time>
      </trkpt>
      <trkpt lat="47.532197088" lon="10.910910443">
        <ele>1546.4</ele>
        <time>2021-07-12T07:01:09Z</time>
      </trkpt>
      <trkpt lat="47.532174457" lon="10.910722520">
        <ele>1548.3</ele>
        <time>2021-07-12T07:09:08Z</time>
      </trkpt>
      <trkpt lat="47.532124501" lon="10.910518756">
        <ele>1553.6</ele>
        <time>2021-07-12T07:09:37Z</time>
      </trkpt>
      <trkpt lat="47.532052249" lon="10.910471482">
        <ele>1556.5</ele>
        <time>2021-07-12T07:09:51Z</time>
      </trkpt>
      <trkpt lat="47.531957701" lon="10.910621854">
        <ele>1560.4</ele>
        <time>2021-07-12T07:10:09Z</time>
      </trkpt>
      <trkpt lat="47.531819986" lon="10.910903653">
        <ele>1564.7</ele>
        <time>2021-07-12T07:10:39Z</time>
      </trkpt>
      <trkpt lat="47.531755110" lon="10.910984790">
        <ele>1567.6</ele>
        <time>2021-07-12T07:10:54Z</time>
      </trkpt>
      <trkpt lat="47.531720409" lon="10.910974564">
        <ele>1570.0</ele>
        <time>2021-07-12T07:11:08Z</time>
      </trkpt>
      <trkpt lat="47.531650672" lon="10.910751186">
        <ele>1576.2</ele>
        <time>2021-07-12T07:11:52Z</time>
      </trkpt>
      <trkpt lat="47.531647319" lon="10.910525629">
        <ele>1579.6</ele>
        <time>2021-07-12T07:12:26Z</time>
      </trkpt>
      <trkpt lat="47.531628543" lon="10.910441643">
        <ele>1581.5</ele>
        <time>2021-07-12T07:12:41Z</time>
      </trkpt>
      <trkpt lat="47.531540785" lon="10.910361847">
        <ele>1586.3</ele>
        <time>2021-07-12T07:13:14Z</time>
      </trkpt>
      <trkpt lat="47.531526117" lon="10.910295043">
        <ele>1588.2</ele>
        <time>2021-07-12T07:13:29Z</time>
      </trkpt>
      <trkpt lat="47.531544892" lon="10.910010813">
        <ele>1592.6</ele>
        <time>2021-07-12T07:14:11Z</time>
      </trkpt>
      <trkpt lat="47.531576240" lon="10.909928754">
        <ele>1594.5</ele>
        <time>2021-07-12T07:14:25Z</time>
      </trkpt>
      <trkpt lat="47.531550256" lon="10.909846108">
        <ele>1595.9</ele>
        <time>2021-07-12T07:14:43Z</time>
      </trkpt>
      <trkpt lat="47.531461576" lon="10.909838648">
        <ele>1601.2</ele>
        <time>2021-07-12T07:15:10Z</time>
      </trkpt>
      <trkpt lat="47.531293016" lon="10.909911655">
        <ele>1608.9</ele>
        <time>2021-07-12T07:15:56Z</time>
      </trkpt>
      <trkpt lat="47.531247083" lon="10.909960354">
        <ele>1611.3</ele>
        <time>2021-07-12T07:16:11Z</time>
      </trkpt>
      <trkpt lat="47.531235265" lon="10.909878546">
        <ele>1612.8</ele>
        <time>2021-07-12T07:16:19Z</time>
      </trkpt>
      <trkpt lat="47.531275079" lon="10.909703281">
        <ele>1616.1</ele>
        <time>2021-07-12T07:16:34Z</time>
      </trkpt>
      <trkpt lat="47.531296536" lon="10.909354007">
        <ele>1622.8</ele>
        <time>2021-07-12T07:17:01Z</time>
      </trkpt>
      <trkpt lat="47.531323694" lon="10.909252334">
        <ele>1625.7</ele>
        <time>2021-07-12T07:17:15Z</time>
      </trkpt>
      <trkpt lat="47.531348420" lon="10.909229033">
        <ele>1628.1</ele>
        <time>2021-07-12T07:20:16Z</time>
      </trkpt>
      <trkpt lat="47.531350516" lon="10.909200031">
        <ele>1627.2</ele>
        <time>2021-07-12T07:23:44Z</time>
      </trkpt>
      <trkpt lat="47.531290920" lon="10.909191985">
        <ele>1627.2</ele>
        <time>2021-07-12T07:23:57Z</time>
      </trkpt>
      <trkpt lat="47.531311372" lon="10.909159630">
        <ele>1627.2</ele>
        <time>2021-07-12T07:24:08Z</time>
      </trkpt>
      <trkpt lat="47.531277593" lon="10.909136916">
        <ele>1634.9</ele>
        <time>2021-07-12T07:24:19Z</time>
      </trkpt>
      <trkpt lat="47.531191008" lon="10.909195924">
        <ele>1636.3</ele>
        <time>2021-07-12T07:24:38Z</time>
      </trkpt>
      <trkpt lat="47.531186314" lon="10.909169857">
        <ele>1637.7</ele>
        <time>2021-07-12T07:24:53Z</time>
      </trkpt>
      <trkpt lat="47.531132335" lon="10.909158876">
        <ele>1639.7</ele>
        <time>2021-07-12T07:25:08Z</time>
      </trkpt>
      <trkpt lat="47.531008031" lon="10.909312684">
        <ele>1645.0</ele>
        <time>2021-07-12T07:25:37Z</time>
      </trkpt>
      <trkpt lat="47.530934690" lon="10.909350738">
        <ele>1647.4</ele>
        <time>2021-07-12T07:25:53Z</time>
      </trkpt>
      <trkpt lat="47.530753305" lon="10.909582917">
        <ele>1651.7</ele>
        <time>2021-07-12T07:26:43Z</time>
      </trkpt>
      <trkpt lat="47.530685663" lon="10.909608398">
        <ele>1654.6</ele>
        <time>2021-07-12T07:27:14Z</time>
      </trkpt>
      <trkpt lat="47.530709216" lon="10.909489458">
        <ele>1657.0</ele>
        <time>2021-07-12T07:27:31Z</time>
      </trkpt>
      <trkpt lat="47.530706702" lon="10.909313858">
        <ele>1660.8</ele>
        <time>2021-07-12T07:28:00Z</time>
      </trkpt>
      <trkpt lat="47.530731177" lon="10.909251748">
        <ele>1662.3</ele>
        <time>2021-07-12T07:28:17Z</time>
      </trkpt>
      <trkpt lat="47.530742744" lon="10.909138341">
        <ele>1664.2</ele>
        <time>2021-07-12T07:28:31Z</time>
      </trkpt>
      <trkpt lat="47.530767303" lon="10.909085618">
        <ele>1665.1</ele>
        <time>2021-07-12T07:28:37Z</time>
      </trkpt>
      <trkpt lat="47.530773841" lon="10.908843549">
        <ele>1669.0</ele>
        <time>2021-07-12T07:29:07Z</time>
      </trkpt>
      <trkpt lat="47.530763112" lon="10.908675995">
        <ele>1672.8</ele>
        <time>2021-07-12T07:29:34Z</time>
      </trkpt>
      <trkpt lat="47.530795634" lon="10.908564599">
        <ele>1674.8</ele>
        <time>2021-07-12T07:29:49Z</time>
      </trkpt>
      <trkpt lat="47.530902084" lon="10.908433842">
        <ele>1678.1</ele>
        <time>2021-07-12T07:30:14Z</time>
      </trkpt>
      <trkpt lat="47.531103333" lon="10.908289002">
        <ele>1680.5</ele>
        <time>2021-07-12T07:30:44Z</time>
      </trkpt>
      <trkpt lat="47.531174244" lon="10.908211973">
        <ele>1681.0</ele>
        <time>2021-07-12T07:30:57Z</time>
      </trkpt>
      <trkpt lat="47.530895211" lon="10.908261510">
        <ele>1685.3</ele>
        <time>2021-07-12T07:31:40Z</time>
      </trkpt>
      <trkpt lat="47.531168628" lon="10.907978201">
        <ele>1691.6</ele>
        <time>2021-07-12T07:32:53Z</time>
      </trkpt>
      <trkpt lat="47.531276001" lon="10.907783238">
        <ele>1697.3</ele>
        <time>2021-07-12T07:33:31Z</time>
      </trkpt>
      <trkpt lat="47.531171897" lon="10.907731187">
        <ele>1703.6</ele>
        <time>2021-07-12T07:34:08Z</time>
      </trkpt>
      <trkpt lat="47.531127557" lon="10.907693049">
        <ele>1706.0</ele>
        <time>2021-07-12T07:34:23Z</time>
      </trkpt>
      <trkpt lat="47.531138454" lon="10.907623563">
        <ele>1708.4</ele>
        <time>2021-07-12T07:34:37Z</time>
      </trkpt>
      <trkpt lat="47.531072907" lon="10.907594729">
        <ele>1710.3</ele>
        <time>2021-07-12T07:34:52Z</time>
      </trkpt>
      <trkpt lat="47.531050444" lon="10.907536391">
        <ele>1713.2</ele>
        <time>2021-07-12T07:35:07Z</time>
      </trkpt>
      <trkpt lat="47.530970816" lon="10.907507054">
        <ele>1717.0</ele>
        <time>2021-07-12T07:35:31Z</time>
      </trkpt>
      <trkpt lat="47.530914070" lon="10.907528428">
        <ele>1720.4</ele>
        <time>2021-07-12T07:35:43Z</time>
      </trkpt>
      <trkpt lat="47.530859169" lon="10.907452405">
        <ele>1722.8</ele>
        <time>2021-07-12T07:35:57Z</time>
      </trkpt>
      <trkpt lat="47.530826228" lon="10.907232379">
        <ele>1726.7</ele>
        <time>2021-07-12T07:36:24Z</time>
      </trkpt>
      <trkpt lat="47.530805860" lon="10.907206731">
        <ele>1728.1</ele>
        <time>2021-07-12T07:36:38Z</time>
      </trkpt>
      <trkpt lat="47.530716844" lon="10.907298429">
        <ele>1735.3</ele>
        <time>2021-07-12T07:37:33Z</time>
      </trkpt>
      <trkpt lat="47.530585080" lon="10.907198098">
        <ele>1741.6</ele>
        <time>2021-07-12T07:38:12Z</time>
      </trkpt>
      <trkpt lat="47.530512493" lon="10.907217125">
        <ele>1744.0</ele>
        <time>2021-07-12T07:38:27Z</time>
      </trkpt>
      <trkpt lat="47.530479804" lon="10.907314606">
        <ele>1745.9</ele>
        <time>2021-07-12T07:39:21Z</time>
      </trkpt>
      <trkpt lat="47.530417191" lon="10.907280743">
        <ele>1748.3</ele>
        <time>2021-07-12T07:39:33Z</time>
      </trkpt>
      <trkpt lat="47.530385424" lon="10.907340590">
        <ele>1751.2</ele>
        <time>2021-07-12T07:39:46Z</time>
      </trkpt>
      <trkpt lat="47.530378299" lon="10.907152165">
        <ele>1753.1</ele>
        <time>2021-07-12T07:40:21Z</time>
      </trkpt>
      <trkpt lat="47.530331360" lon="10.907024592">
        <ele>1755.0</ele>
        <time>2021-07-12T07:40:40Z</time>
      </trkpt>
      <trkpt lat="47.530229939" lon="10.906991987">
        <ele>1759.3</ele>
        <time>2021-07-12T07:41:06Z</time>
      </trkpt>
      <trkpt lat="47.530189957" lon="10.906939851">
        <ele>1757.9</ele>
        <time>2021-07-12T07:41:27Z</time>
      </trkpt>
      <trkpt lat="47.530154921" lon="10.906837257">
        <ele>1757.0</ele>
        <time>2021-07-12T07:41:43Z</time>
      </trkpt>
      <trkpt lat="47.530065989" lon="10.906753940">
        <ele>1758.9</ele>
        <time>2021-07-12T07:41:58Z</time>
      </trkpt>
      <trkpt lat="47.530021397" lon="10.906751175">
        <ele>1760.8</ele>
        <time>2021-07-12T07:42:11Z</time>
      </trkpt>
      <trkpt lat="47.530018045" lon="10.906823594">
        <ele>1762.2</ele>
        <time>2021-07-12T07:42:28Z</time>
      </trkpt>
      <trkpt lat="47.529979907" lon="10.906822504">
        <ele>1765.1</ele>
        <time>2021-07-12T07:42:41Z</time>
      </trkpt>
      <trkpt lat="47.529957863" lon="10.906855865">
        <ele>1767.5</ele>
        <time>2021-07-12T07:42:55Z</time>
      </trkpt>
      <trkpt lat="47.529909248" lon="10.906806830">
        <ele>1770.4</ele>
        <time>2021-07-12T07:43:29Z</time>
      </trkpt>
      <trkpt lat="47.529868595" lon="10.906818565">
        <ele>1771.4</ele>
        <time>2021-07-12T07:43:51Z</time>
      </trkpt>
      <trkpt lat="47.529851915" lon="10.906867264">
        <ele>1773.3</ele>
        <time>2021-07-12T07:44:07Z</time>
      </trkpt>
      <trkpt lat="47.529790057" lon="10.906935073">
        <ele>1776.2</ele>
        <time>2021-07-12T07:44:29Z</time>
      </trkpt>
      <trkpt lat="47.529786034" lon="10.907010762">
        <ele>1778.6</ele>
        <time>2021-07-12T07:44:43Z</time>
      </trkpt>
      <trkpt lat="47.529721409" lon="10.907076392">
        <ele>1782.9</ele>
        <time>2021-07-12T07:45:11Z</time>
      </trkpt>
      <trkpt lat="47.529566679" lon="10.907080332">
        <ele>1788.2</ele>
        <time>2021-07-12T07:45:50Z</time>
      </trkpt>
      <trkpt lat="47.529445058" lon="10.907001877">
        <ele>1794.9</ele>
        <time>2021-07-12T07:46:27Z</time>
      </trkpt>
      <trkpt lat="47.529350677" lon="10.906992070">
        <ele>1798.3</ele>
        <time>2021-07-12T07:47:28Z</time>
      </trkpt>
      <trkpt lat="47.529264009" lon="10.906954771">
        <ele>1801.2</ele>
        <time>2021-07-12T07:47:45Z</time>
      </trkpt>
      <trkpt lat="47.529235510" lon="10.906996848">
        <ele>1806.0</ele>
        <time>2021-07-12T07:48:27Z</time>
      </trkpt>
      <trkpt lat="47.529269708" lon="10.907087540">
        <ele>1810.8</ele>
        <time>2021-07-12T07:49:36Z</time>
      </trkpt>
      <trkpt lat="47.529278174" lon="10.907171443">
        <ele>1809.8</ele>
        <time>2021-07-12T07:49:54Z</time>
      </trkpt>
      <trkpt lat="47.529262332" lon="10.907210838">
        <ele>1812.2</ele>
        <time>2021-07-12T07:50:08Z</time>
      </trkpt>
      <trkpt lat="47.529073488" lon="10.907321060">
        <ele>1812.7</ele>
        <time>2021-07-12T07:50:28Z</time>
      </trkpt>
      <trkpt lat="47.528918926" lon="10.907405969">
        <ele>1818.0</ele>
        <time>2021-07-12T07:50:58Z</time>
      </trkpt>
      <trkpt lat="47.528888164" lon="10.907398676">
        <ele>1819.9</ele>
        <time>2021-07-12T07:51:17Z</time>
      </trkpt>
      <trkpt lat="47.528862013" lon="10.907333465">
        <ele>1821.8</ele>
        <time>2021-07-12T07:51:30Z</time>
      </trkpt>
      <trkpt lat="47.528792527" lon="10.907379985">
        <ele>1826.2</ele>
        <time>2021-07-12T07:52:43Z</time>
      </trkpt>
      <trkpt lat="47.528769560" lon="10.907353666">
        <ele>1828.1</ele>
        <time>2021-07-12T07:52:56Z</time>
      </trkpt>
      <trkpt lat="47.528738715" lon="10.907407897">
        <ele>1831.0</ele>
        <time>2021-07-12T07:53:10Z</time>
      </trkpt>
      <trkpt lat="47.528705187" lon="10.907290215">
        <ele>1833.8</ele>
        <time>2021-07-12T07:53:25Z</time>
      </trkpt>
      <trkpt lat="47.528723711" lon="10.907250568">
        <ele>1836.7</ele>
        <time>2021-07-12T07:53:41Z</time>
      </trkpt>
      <trkpt lat="47.528713150" lon="10.907234559">
        <ele>1836.7</ele>
        <time>2021-07-12T07:53:54Z</time>
      </trkpt>
      <trkpt lat="47.528658751" lon="10.907282336">
        <ele>1838.7</ele>
        <time>2021-07-12T07:54:10Z</time>
      </trkpt>
      <trkpt lat="47.528613405" lon="10.907396916">
        <ele>1840.6</ele>
        <time>2021-07-12T07:54:25Z</time>
      </trkpt>
      <trkpt lat="47.528567137" lon="10.907399766">
        <ele>1845.4</ele>
        <time>2021-07-12T07:54:40Z</time>
      </trkpt>
      <trkpt lat="47.528572837" lon="10.907344949">
        <ele>1849.2</ele>
        <time>2021-07-12T07:55:16Z</time>
      </trkpt>
      <trkpt lat="47.528520953" lon="10.907354839">
        <ele>1850.2</ele>
        <time>2021-07-12T07:55:30Z</time>
      </trkpt>
      <trkpt lat="47.528457753" lon="10.907522142">
        <ele>1856.0</ele>
        <time>2021-07-12T07:55:55Z</time>
      </trkpt>
      <trkpt lat="47.528397488" lon="10.907435305">
        <ele>1859.3</ele>
        <time>2021-07-12T07:56:09Z</time>
      </trkpt>
      <trkpt lat="47.528285002" lon="10.907635130">
        <ele>1867.5</ele>
        <time>2021-07-12T07:57:23Z</time>
      </trkpt>
      <trkpt lat="47.528321212" lon="10.907675615">
        <ele>1867.5</ele>
        <time>2021-07-12T07:57:38Z</time>
      </trkpt>
      <trkpt lat="47.528351638" lon="10.907929921">
        <ele>1874.2</ele>
        <time>2021-07-12T07:58:21Z</time>
      </trkpt>
      <trkpt lat="47.528375275" lon="10.907937633">
        <ele>1875.7</ele>
        <time>2021-07-12T07:58:39Z</time>
      </trkpt>
      <trkpt lat="47.528409809" lon="10.908007119">
        <ele>1875.7</ele>
        <time>2021-07-12T07:59:03Z</time>
      </trkpt>
      <trkpt lat="47.528387513" lon="10.908082807">
        <ele>1877.6</ele>
        <time>2021-07-12T07:59:16Z</time>
      </trkpt>
      <trkpt lat="47.528398996" lon="10.908206357">
        <ele>1879.5</ele>
        <time>2021-07-12T07:59:30Z</time>
      </trkpt>
      <trkpt lat="47.528379634" lon="10.908335270">
        <ele>1880.5</ele>
        <time>2021-07-12T07:59:45Z</time>
      </trkpt>
      <trkpt lat="47.528388184" lon="10.908348179">
        <ele>1881.4</ele>
        <time>2021-07-12T08:00:04Z</time>
      </trkpt>
      <trkpt lat="47.528361361" lon="10.908419844">
        <ele>1880.5</ele>
        <time>2021-07-12T08:00:14Z</time>
      </trkpt>
      <trkpt lat="47.528318195" lon="10.908457395">
        <ele>1879.0</ele>
        <time>2021-07-12T08:00:19Z</time>
      </trkpt>
      <trkpt lat="47.528248457" lon="10.908827540">
        <ele>1877.6</ele>
        <time>2021-07-12T08:00:50Z</time>
      </trkpt>
      <trkpt lat="47.528245524" lon="10.908965757">
        <ele>1877.1</ele>
        <time>2021-07-12T08:01:04Z</time>
      </trkpt>
      <trkpt lat="47.528176540" lon="10.909120403">
        <ele>1875.7</ele>
        <time>2021-07-12T08:01:55Z</time>
      </trkpt>
      <trkpt lat="47.528166147" lon="10.909189302">
        <ele>1875.2</ele>
        <time>2021-07-12T08:02:00Z</time>
      </trkpt>
      <trkpt lat="47.528049052" lon="10.909615271">
        <ele>1869.9</ele>
        <time>2021-07-12T08:02:37Z</time>
      </trkpt>
      <trkpt lat="47.528095823" lon="10.909906542">
        <ele>1872.8</ele>
        <time>2021-07-12T08:03:13Z</time>
      </trkpt>
      <trkpt lat="47.528208643" lon="10.910120113">
        <ele>1881.4</ele>
        <time>2021-07-12T08:04:19Z</time>
      </trkpt>
      <trkpt lat="47.528265556" lon="10.910130087">
        <ele>1885.3</ele>
        <time>2021-07-12T08:04:45Z</time>
      </trkpt>
      <trkpt lat="47.528289277" lon="10.910455054">
        <ele>1889.6</ele>
        <time>2021-07-12T08:05:24Z</time>
      </trkpt>
      <trkpt lat="47.528342921" lon="10.910752947">
        <ele>1892.0</ele>
        <time>2021-07-12T08:05:54Z</time>
      </trkpt>
      <trkpt lat="47.528309142" lon="10.911239851">
        <ele>1894.4</ele>
        <time>2021-07-12T08:06:39Z</time>
      </trkpt>
      <trkpt lat="47.528322637" lon="10.911358371">
        <ele>1894.4</ele>
        <time>2021-07-12T08:06:53Z</time>
      </trkpt>
      <trkpt lat="47.528291792" lon="10.911600525">
        <ele>1897.3</ele>
        <time>2021-07-12T08:07:18Z</time>
      </trkpt>
      <trkpt lat="47.528209146" lon="10.911949212">
        <ele>1899.2</ele>
        <time>2021-07-12T08:07:57Z</time>
      </trkpt>
      <trkpt lat="47.528203698" lon="10.912057506">
        <ele>1900.7</ele>
        <time>2021-07-12T08:08:11Z</time>
      </trkpt>
      <trkpt lat="47.528113592" lon="10.912123639">
        <ele>1900.2</ele>
        <time>2021-07-12T08:08:37Z</time>
      </trkpt>
      <trkpt lat="47.528086938" lon="10.912292367">
        <ele>1901.1</ele>
        <time>2021-07-12T08:09:05Z</time>
      </trkpt>
      <trkpt lat="47.528103869" lon="10.912326314">
        <ele>1902.6</ele>
        <time>2021-07-12T08:09:21Z</time>
      </trkpt>
      <trkpt lat="47.528140163" lon="10.912709953">
        <ele>1914.1</ele>
        <time>2021-07-12T08:10:47Z</time>
      </trkpt>
      <trkpt lat="47.528160699" lon="10.912754377">
        <ele>1915.6</ele>
        <time>2021-07-12T08:11:00Z</time>
      </trkpt>
      <trkpt lat="47.528161369" lon="10.912841633">
        <ele>1917.0</ele>
        <time>2021-07-12T08:11:14Z</time>
      </trkpt>
      <trkpt lat="47.528177211" lon="10.912883207">
        <ele>1918.5</ele>
        <time>2021-07-12T08:11:27Z</time>
      </trkpt>
      <trkpt lat="47.528057601" lon="10.913248239">
        <ele>1918.5</ele>
        <time>2021-07-12T08:12:08Z</time>
      </trkpt>
      <trkpt lat="47.528035725" lon="10.913419733">
        <ele>1917.5</ele>
        <time>2021-07-12T08:12:23Z</time>
      </trkpt>
      <trkpt lat="47.527973279" lon="10.913477819">
        <ele>1916.0</ele>
        <time>2021-07-12T08:12:36Z</time>
      </trkpt>
      <trkpt lat="47.527916115" lon="10.913666664">
        <ele>1914.6</ele>
        <time>2021-07-12T08:12:53Z</time>
      </trkpt>
      <trkpt lat="47.527908906" lon="10.913978135">
        <ele>1920.8</ele>
        <time>2021-07-12T08:13:38Z</time>
      </trkpt>
      <trkpt lat="47.527850149" lon="10.914123058">
        <ele>1925.2</ele>
        <time>2021-07-12T08:14:08Z</time>
      </trkpt>
      <trkpt lat="47.527726013" lon="10.914303437">
        <ele>1929.5</ele>
        <time>2021-07-12T08:14:44Z</time>
      </trkpt>
      <trkpt lat="47.527739424" lon="10.914373090">
        <ele>1932.4</ele>
        <time>2021-07-12T08:15:08Z</time>
      </trkpt>
      <trkpt lat="47.527715033" lon="10.914488426">
        <ele>1936.7</ele>
        <time>2021-07-12T08:15:35Z</time>
      </trkpt>
      <trkpt lat="47.527682595" lon="10.914571993">
        <ele>1939.6</ele>
        <time>2021-07-12T08:15:50Z</time>
      </trkpt>
      <trkpt lat="47.527649654" lon="10.914730746">
        <ele>1945.4</ele>
        <time>2021-07-12T08:16:35Z</time>
      </trkpt>
      <trkpt lat="47.527607074" lon="10.914794952">
        <ele>1947.3</ele>
        <time>2021-07-12T08:16:50Z</time>
      </trkpt>
      <trkpt lat="47.527633309" lon="10.914821019">
        <ele>1948.7</ele>
        <time>2021-07-12T08:17:02Z</time>
      </trkpt>
      <trkpt lat="47.527792482" lon="10.914815655">
        <ele>1952.6</ele>
        <time>2021-07-12T08:17:35Z</time>
      </trkpt>
      <trkpt lat="47.527836654" lon="10.914840885">
        <ele>1954.0</ele>
        <time>2021-07-12T08:17:52Z</time>
      </trkpt>
      <trkpt lat="47.527836990" lon="10.914889583">
        <ele>1956.9</ele>
        <time>2021-07-12T08:18:07Z</time>
      </trkpt>
      <trkpt lat="47.527698018" lon="10.915052192">
        <ele>1961.2</ele>
        <time>2021-07-12T08:18:45Z</time>
      </trkpt>
      <trkpt lat="47.527708244" lon="10.915072560">
        <ele>1962.7</ele>
        <time>2021-07-12T08:19:01Z</time>
      </trkpt>
      <trkpt lat="47.527798600" lon="10.915087396">
        <ele>1966.0</ele>
        <time>2021-07-12T08:19:36Z</time>
      </trkpt>
      <trkpt lat="47.527804971" lon="10.915110027">
        <ele>1967.0</ele>
        <time>2021-07-12T08:19:52Z</time>
      </trkpt>
      <trkpt lat="47.527804971" lon="10.915145650">
        <ele>1968.9</ele>
        <time>2021-07-12T08:20:05Z</time>
      </trkpt>
      <trkpt lat="47.527762642" lon="10.915211281">
        <ele>1972.3</ele>
        <time>2021-07-12T08:21:19Z</time>
      </trkpt>
      <trkpt lat="47.527719559" lon="10.915360479">
        <ele>1977.1</ele>
        <time>2021-07-12T08:22:04Z</time>
      </trkpt>
      <trkpt lat="47.527826428" lon="10.915401801">
        <ele>1981.9</ele>
        <time>2021-07-12T08:22:51Z</time>
      </trkpt>
      <trkpt lat="47.527853418" lon="10.915438430">
        <ele>1984.8</ele>
        <time>2021-07-12T08:23:06Z</time>
      </trkpt>
      <trkpt lat="47.527791811" lon="10.915553514">
        <ele>1987.2</ele>
        <time>2021-07-12T08:23:30Z</time>
      </trkpt>
      <trkpt lat="47.527752835" lon="10.915682511">
        <ele>1991.0</ele>
        <time>2021-07-12T08:23:55Z</time>
      </trkpt>
      <trkpt lat="47.527831961" lon="10.915798517">
        <ele>1996.8</ele>
        <time>2021-07-12T08:24:40Z</time>
      </trkpt>
      <trkpt lat="47.527827686" lon="10.915843444">
        <ele>1998.2</ele>
        <time>2021-07-12T08:24:52Z</time>
      </trkpt>
      <trkpt lat="47.527817041" lon="10.915885689">
        <ele>2000.2</ele>
        <time>2021-07-12T08:25:04Z</time>
      </trkpt>
      <trkpt lat="47.527737664" lon="10.915988367">
        <ele>2003.5</ele>
        <time>2021-07-12T08:25:30Z</time>
      </trkpt>
      <trkpt lat="47.527824584" lon="10.916045951">
        <ele>2006.4</ele>
        <time>2021-07-12T08:25:50Z</time>
      </trkpt>
      <trkpt lat="47.527862387" lon="10.916123651">
        <ele>2008.3</ele>
        <time>2021-07-12T08:26:29Z</time>
      </trkpt>
      <trkpt lat="47.527843779" lon="10.916184839">
        <ele>2011.7</ele>
        <time>2021-07-12T08:26:38Z</time>
      </trkpt>
      <trkpt lat="47.527760798" lon="10.916248290">
        <ele>2014.6</ele>
        <time>2021-07-12T08:26:50Z</time>
      </trkpt>
      <trkpt lat="47.527714278" lon="10.916321967">
        <ele>2017.5</ele>
        <time>2021-07-12T08:27:25Z</time>
      </trkpt>
      <trkpt lat="47.527670693" lon="10.916464878">
        <ele>2021.8</ele>
        <time>2021-07-12T08:28:21Z</time>
      </trkpt>
      <trkpt lat="47.527677817" lon="10.916521707">
        <ele>2024.2</ele>
        <time>2021-07-12T08:28:36Z</time>
      </trkpt>
      <trkpt lat="47.527814275" lon="10.916529838">
        <ele>2027.6</ele>
        <time>2021-07-12T08:29:05Z</time>
      </trkpt>
      <trkpt lat="47.527741939" lon="10.916659925">
        <ele>2032.4</ele>
        <time>2021-07-12T08:29:34Z</time>
      </trkpt>
      <trkpt lat="47.527748141" lon="10.916700158">
        <ele>2033.8</ele>
        <time>2021-07-12T08:29:46Z</time>
      </trkpt>
      <trkpt lat="47.527712602" lon="10.916758413">
        <ele>2036.2</ele>
        <time>2021-07-12T08:30:00Z</time>
      </trkpt>
      <trkpt lat="47.527620485" lon="10.916823288">
        <ele>2038.6</ele>
        <time>2021-07-12T08:30:29Z</time>
      </trkpt>
      <trkpt lat="47.527624927" lon="10.916863857">
        <ele>2039.1</ele>
        <time>2021-07-12T08:30:41Z</time>
      </trkpt>
      <trkpt lat="47.527606404" lon="10.916918674">
        <ele>2041.0</ele>
        <time>2021-07-12T08:30:54Z</time>
      </trkpt>
      <trkpt lat="47.527724672" lon="10.916947005">
        <ele>2044.9</ele>
        <time>2021-07-12T08:31:26Z</time>
      </trkpt>
      <trkpt lat="47.527708663" lon="10.917002661">
        <ele>2048.2</ele>
        <time>2021-07-12T08:31:41Z</time>
      </trkpt>
      <trkpt lat="47.527564075" lon="10.917044487">
        <ele>2048.7</ele>
        <time>2021-07-12T08:32:28Z</time>
      </trkpt>
      <trkpt lat="47.527566338" lon="10.917080361">
        <ele>2050.6</ele>
        <time>2021-07-12T08:32:44Z</time>
      </trkpt>
      <trkpt lat="47.527548485" lon="10.917089079">
        <ele>2052.1</ele>
        <time>2021-07-12T08:33:02Z</time>
      </trkpt>
      <trkpt lat="47.527517388" lon="10.917160744">
        <ele>2055.4</ele>
        <time>2021-07-12T08:34:39Z</time>
      </trkpt>
      <trkpt lat="47.527552592" lon="10.917244060">
        <ele>2059.8</ele>
        <time>2021-07-12T08:35:11Z</time>
      </trkpt>
      <trkpt lat="47.527622581" lon="10.917249844">
        <ele>2063.1</ele>
        <time>2021-07-12T08:35:26Z</time>
      </trkpt>
      <trkpt lat="47.527639177" lon="10.917284712">
        <ele>2066.0</ele>
        <time>2021-07-12T08:35:41Z</time>
      </trkpt>
      <trkpt lat="47.527445387" lon="10.917409603">
        <ele>2068.4</ele>
        <time>2021-07-12T08:36:29Z</time>
      </trkpt>
      <trkpt lat="47.527401634" lon="10.917517645">
        <ele>2073.2</ele>
        <time>2021-07-12T08:37:12Z</time>
      </trkpt>
      <trkpt lat="47.527436167" lon="10.917548239">
        <ele>2075.1</ele>
        <time>2021-07-12T08:37:26Z</time>
      </trkpt>
      <trkpt lat="47.527534151" lon="10.917519825">
        <ele>2081.9</ele>
        <time>2021-07-12T08:38:11Z</time>
      </trkpt>
      <trkpt lat="47.527550915" lon="10.917670028">
        <ele>2089.1</ele>
        <time>2021-07-12T08:39:08Z</time>
      </trkpt>
      <trkpt lat="47.527579833" lon="10.917667430">
        <ele>2092.0</ele>
        <time>2021-07-12T08:39:20Z</time>
      </trkpt>
      <trkpt lat="47.527480926" lon="10.917779245">
        <ele>2095.8</ele>
        <time>2021-07-12T08:40:00Z</time>
      </trkpt>
      <trkpt lat="47.527503390" lon="10.917897429">
        <ele>2102.1</ele>
        <time>2021-07-12T08:40:22Z</time>
      </trkpt>
      <trkpt lat="47.527542785" lon="10.917921569">
        <ele>2105.4</ele>
        <time>2021-07-12T08:40:31Z</time>
      </trkpt>
      <trkpt lat="47.527545048" lon="10.918004215">
        <ele>2110.7</ele>
        <time>2021-07-12T08:42:12Z</time>
      </trkpt>
      <trkpt lat="47.527562147" lon="10.918049309">
        <ele>2110.7</ele>
        <time>2021-07-12T08:42:27Z</time>
      </trkpt>
      <trkpt lat="47.527550161" lon="10.918077640">
        <ele>2112.6</ele>
        <time>2021-07-12T08:42:38Z</time>
      </trkpt>
      <trkpt lat="47.527521243" lon="10.918083675">
        <ele>2115.5</ele>
        <time>2021-07-12T08:42:50Z</time>
      </trkpt>
      <trkpt lat="47.527450332" lon="10.918010082">
        <ele>2118.4</ele>
        <time>2021-07-12T08:43:04Z</time>
      </trkpt>
      <trkpt lat="47.527383864" lon="10.918040425">
        <ele>2119.4</ele>
        <time>2021-07-12T08:43:14Z</time>
      </trkpt>
      <trkpt lat="47.527354695" lon="10.918026175">
        <ele>2119.8</ele>
        <time>2021-07-12T08:43:23Z</time>
      </trkpt>
      <trkpt lat="47.527383445" lon="10.918037659">
        <ele>2120.3</ele>
        <time>2021-07-12T08:43:26Z</time>
      </trkpt>
      <trkpt lat="47.527479166" lon="10.918004382">
        <ele>2119.4</ele>
        <time>2021-07-12T08:44:00Z</time>
      </trkpt>
      <trkpt lat="47.527338350" lon="10.918055093">
        <ele>2120.8</ele>
        <time>2021-07-12T08:45:48Z</time>
      </trkpt>
      <trkpt lat="47.527273307" lon="10.917979823">
        <ele>2124.7</ele>
        <time>2021-07-12T08:46:06Z</time>
      </trkpt>
      <trkpt lat="47.527256375" lon="10.918049728">
        <ele>2126.1</ele>
        <time>2021-07-12T08:46:33Z</time>
      </trkpt>
      <trkpt lat="47.527083708" lon="10.918174535">
        <ele>2129.5</ele>
        <time>2021-07-12T08:46:59Z</time>
      </trkpt>
      <trkpt lat="47.526984718" lon="10.918221222">
        <ele>2131.9</ele>
        <time>2021-07-12T08:47:07Z</time>
      </trkpt>
      <trkpt lat="47.527010534" lon="10.918284422">
        <ele>2137.6</ele>
        <time>2021-07-12T08:47:31Z</time>
      </trkpt>
      <trkpt lat="47.527073231" lon="10.918325493">
        <ele>2138.1</ele>
        <time>2021-07-12T08:47:47Z</time>
      </trkpt>
      <trkpt lat="47.527048923" lon="10.918358937">
        <ele>2140.0</ele>
        <time>2021-07-12T08:48:00Z</time>
      </trkpt>
      <trkpt lat="47.526912633" lon="10.918302191">
        <ele>2143.4</ele>
        <time>2021-07-12T08:49:08Z</time>
      </trkpt>
      <trkpt lat="47.526796628" lon="10.918219211">
        <ele>2144.4</ele>
        <time>2021-07-12T08:49:37Z</time>
      </trkpt>
      <trkpt lat="47.526750360" lon="10.918231783">
        <ele>2145.8</ele>
        <time>2021-07-12T08:49:49Z</time>
      </trkpt>
      <trkpt lat="47.526644161" lon="10.918105720">
        <ele>2148.7</ele>
        <time>2021-07-12T08:50:13Z</time>
      </trkpt>
      <trkpt lat="47.526545087" lon="10.918021482">
        <ele>2151.1</ele>
        <time>2021-07-12T08:50:32Z</time>
      </trkpt>
      <trkpt lat="47.526567131" lon="10.918011004">
        <ele>2150.6</ele>
        <time>2021-07-12T09:04:20Z</time>
      </trkpt>
      <trkpt lat="47.526612896" lon="10.918090297">
        <ele>2151.6</ele>
        <time>2021-07-12T09:10:31Z</time>
      </trkpt>
      <trkpt lat="47.526656566" lon="10.918111336">
        <ele>2151.6</ele>
        <time>2021-07-12T09:11:13Z</time>
      </trkpt>
      <trkpt lat="47.526748851" lon="10.918219294">
        <ele>2149.2</ele>
        <time>2021-07-12T09:11:42Z</time>
      </trkpt>
      <trkpt lat="47.526817918" lon="10.918222731">
        <ele>2147.2</ele>
        <time>2021-07-12T09:12:21Z</time>
      </trkpt>
      <trkpt lat="47.527062083" lon="10.918357428">
        <ele>2144.4</ele>
        <time>2021-07-12T09:12:54Z</time>
      </trkpt>
      <trkpt lat="47.527101142" lon="10.918315686">
        <ele>2141.9</ele>
        <time>2021-07-12T09:13:09Z</time>
      </trkpt>
      <trkpt lat="47.527017994" lon="10.918224324">
        <ele>2139.1</ele>
        <time>2021-07-12T09:13:24Z</time>
      </trkpt>
      <trkpt lat="47.527246820" lon="10.918049477">
        <ele>2130.4</ele>
        <time>2021-07-12T09:14:19Z</time>
      </trkpt>
      <trkpt lat="47.527294597" lon="10.918038245">
        <ele>2129.5</ele>
        <time>2021-07-12T09:14:46Z</time>
      </trkpt>
      <trkpt lat="47.527278923" lon="10.918002706">
        <ele>2129.0</ele>
        <time>2021-07-12T09:15:00Z</time>
      </trkpt>
      <trkpt lat="47.527309097" lon="10.917992145">
        <ele>2127.5</ele>
        <time>2021-07-12T09:15:15Z</time>
      </trkpt>
      <trkpt lat="47.527377494" lon="10.918050483">
        <ele>2124.7</ele>
        <time>2021-07-12T09:15:31Z</time>
      </trkpt>
      <trkpt lat="47.527494673" lon="10.917991139">
        <ele>2121.8</ele>
        <time>2021-07-12T09:15:59Z</time>
      </trkpt>
      <trkpt lat="47.527547814" lon="10.918070264">
        <ele>2119.4</ele>
        <time>2021-07-12T09:17:07Z</time>
      </trkpt>
      <trkpt lat="47.527575223" lon="10.918071689">
        <ele>2117.9</ele>
        <time>2021-07-12T09:17:19Z</time>
      </trkpt>
      <trkpt lat="47.527591651" lon="10.918051572">
        <ele>2116.0</ele>
        <time>2021-07-12T09:17:34Z</time>
      </trkpt>
      <trkpt lat="47.527583353" lon="10.917940680">
        <ele>2112.6</ele>
        <time>2021-07-12T09:17:56Z</time>
      </trkpt>
      <trkpt lat="47.527543204" lon="10.917922575">
        <ele>2110.2</ele>
        <time>2021-07-12T09:18:11Z</time>
      </trkpt>
      <trkpt lat="47.527578492" lon="10.917896256">
        <ele>2110.2</ele>
        <time>2021-07-12T09:18:29Z</time>
      </trkpt>
      <trkpt lat="47.527537169" lon="10.917844623">
        <ele>2106.4</ele>
        <time>2021-07-12T09:19:10Z</time>
      </trkpt>
      <trkpt lat="47.527546892" lon="10.917821238">
        <ele>2105.4</ele>
        <time>2021-07-12T09:19:24Z</time>
      </trkpt>
      <trkpt lat="47.527530296" lon="10.917734737">
        <ele>2102.5</ele>
        <time>2021-07-12T09:20:11Z</time>
      </trkpt>
      <trkpt lat="47.527598776" lon="10.917646224">
        <ele>2099.2</ele>
        <time>2021-07-12T09:20:26Z</time>
      </trkpt>
      <trkpt lat="47.527563488" lon="10.917602805">
        <ele>2096.3</ele>
        <time>2021-07-12T09:20:39Z</time>
      </trkpt>
      <trkpt lat="47.527528033" lon="10.917596938">
        <ele>2093.9</ele>
        <time>2021-07-12T09:20:55Z</time>
      </trkpt>
      <trkpt lat="47.527546724" lon="10.917558884">
        <ele>2091.0</ele>
        <time>2021-07-12T09:21:28Z</time>
      </trkpt>
      <trkpt lat="47.527543707" lon="10.917469785">
        <ele>2087.2</ele>
        <time>2021-07-12T09:21:55Z</time>
      </trkpt>
      <trkpt lat="47.527508335" lon="10.917468276">
        <ele>2085.7</ele>
        <time>2021-07-12T09:22:11Z</time>
      </trkpt>
      <trkpt lat="47.527483860" lon="10.917499457">
        <ele>2083.8</ele>
        <time>2021-07-12T09:22:26Z</time>
      </trkpt>
      <trkpt lat="47.527445303" lon="10.917494679">
        <ele>2081.9</ele>
        <time>2021-07-12T09:22:41Z</time>
      </trkpt>
      <trkpt lat="47.527397359" lon="10.917422930">
        <ele>2078.0</ele>
        <time>2021-07-12T09:23:23Z</time>
      </trkpt>
      <trkpt lat="47.527522584" lon="10.917357719">
        <ele>2074.2</ele>
        <time>2021-07-12T09:24:05Z</time>
      </trkpt>
      <trkpt lat="47.527570277" lon="10.917317737">
        <ele>2073.2</ele>
        <time>2021-07-12T09:24:21Z</time>
      </trkpt>
      <trkpt lat="47.527616797" lon="10.917220423">
        <ele>2073.7</ele>
        <time>2021-07-12T09:24:39Z</time>
      </trkpt>
      <trkpt lat="47.527517891" lon="10.917222099">
        <ele>2068.9</ele>
        <time>2021-07-12T09:24:55Z</time>
      </trkpt>
      <trkpt lat="47.527525350" lon="10.917176083">
        <ele>2067.0</ele>
        <time>2021-07-12T09:25:10Z</time>
      </trkpt>
      <trkpt lat="47.527541444" lon="10.917164180">
        <ele>2066.0</ele>
        <time>2021-07-12T09:25:25Z</time>
      </trkpt>
      <trkpt lat="47.527508587" lon="10.917144315">
        <ele>2062.7</ele>
        <time>2021-07-12T09:26:14Z</time>
      </trkpt>
      <trkpt lat="47.527499869" lon="10.917126294">
        <ele>2062.2</ele>
        <time>2021-07-12T09:26:31Z</time>
      </trkpt>
      <trkpt lat="47.527572373" lon="10.917098718">
        <ele>2061.2</ele>
        <time>2021-07-12T09:27:05Z</time>
      </trkpt>
      <trkpt lat="47.527568350" lon="10.917079439">
        <ele>2062.2</ele>
        <time>2021-07-12T09:27:26Z</time>
      </trkpt>
      <trkpt lat="47.527532056" lon="10.917082373">
        <ele>2058.8</ele>
        <time>2021-07-12T09:27:40Z</time>
      </trkpt>
      <trkpt lat="47.527577067" lon="10.917005427">
        <ele>2056.9</ele>
        <time>2021-07-12T09:27:56Z</time>
      </trkpt>
      <trkpt lat="47.527678404" lon="10.917044654">
        <ele>2057.4</ele>
        <time>2021-07-12T09:28:20Z</time>
      </trkpt>
      <trkpt lat="47.527771108" lon="10.917009953">
        <ele>2058.8</ele>
        <time>2021-07-12T09:29:44Z</time>
      </trkpt>
      <trkpt lat="47.527774125" lon="10.916953292">
        <ele>2058.3</ele>
        <time>2021-07-12T09:29:52Z</time>
      </trkpt>
      <trkpt lat="47.527629789" lon="10.916912137">
        <ele>2052.1</ele>
        <time>2021-07-12T09:30:11Z</time>
      </trkpt>
      <trkpt lat="47.527630292" lon="10.916871401">
        <ele>2050.6</ele>
        <time>2021-07-12T09:30:23Z</time>
      </trkpt>
      <trkpt lat="47.527775383" lon="10.916761430">
        <ele>2047.8</ele>
        <time>2021-07-12T09:30:37Z</time>
      </trkpt>
      <trkpt lat="47.527871020" lon="10.916552301">
        <ele>2041.5</ele>
        <time>2021-07-12T09:30:56Z</time>
      </trkpt>
      <trkpt lat="47.527784603" lon="10.916538555">
        <ele>2039.1</ele>
        <time>2021-07-12T09:31:04Z</time>
      </trkpt>
      <trkpt lat="47.527732803" lon="10.916480636">
        <ele>2035.7</ele>
        <time>2021-07-12T09:31:13Z</time>
      </trkpt>
      <trkpt lat="47.527783932" lon="10.916308891">
        <ele>2029.0</ele>
        <time>2021-07-12T09:31:32Z</time>
      </trkpt>
      <trkpt lat="47.527855262" lon="10.916217025">
        <ele>2026.1</ele>
        <time>2021-07-12T09:31:45Z</time>
      </trkpt>
      <trkpt lat="47.527934639" lon="10.916165058">
        <ele>2023.2</ele>
        <time>2021-07-12T09:31:58Z</time>
      </trkpt>
      <trkpt lat="47.527872361" lon="10.916039413">
        <ele>2019.9</ele>
        <time>2021-07-12T09:32:11Z</time>
      </trkpt>
      <trkpt lat="47.527809581" lon="10.915961964">
        <ele>2014.6</ele>
        <time>2021-07-12T09:32:32Z</time>
      </trkpt>
      <trkpt lat="47.527901530" lon="10.915863225">
        <ele>2011.2</ele>
        <time>2021-07-12T09:32:45Z</time>
      </trkpt>
      <trkpt lat="47.527893819" lon="10.915801786">
        <ele>2009.3</ele>
        <time>2021-07-12T09:32:57Z</time>
      </trkpt>
      <trkpt lat="47.527867416" lon="10.915764570">
        <ele>2008.3</ele>
        <time>2021-07-12T09:33:08Z</time>
      </trkpt>
      <trkpt lat="47.527803797" lon="10.915725846">
        <ele>2005.0</ele>
        <time>2021-07-12T09:33:19Z</time>
      </trkpt>
      <trkpt lat="47.527877307" lon="10.915429210">
        <ele>1996.8</ele>
        <time>2021-07-12T09:33:53Z</time>
      </trkpt>
      <trkpt lat="47.527803043" lon="10.915422589">
        <ele>1993.4</ele>
        <time>2021-07-12T09:34:05Z</time>
      </trkpt>
      <trkpt lat="47.527817376" lon="10.915381852">
        <ele>1991.0</ele>
        <time>2021-07-12T09:34:18Z</time>
      </trkpt>
      <trkpt lat="47.527813436" lon="10.915340446">
        <ele>1988.6</ele>
        <time>2021-07-12T09:34:32Z</time>
      </trkpt>
      <trkpt lat="47.527794745" lon="10.915328627">
        <ele>1987.7</ele>
        <time>2021-07-12T09:34:40Z</time>
      </trkpt>
      <trkpt lat="47.527833050" lon="10.915240198">
        <ele>1985.7</ele>
        <time>2021-07-12T09:34:54Z</time>
      </trkpt>
      <trkpt lat="47.527810335" lon="10.915208431">
        <ele>1983.8</ele>
        <time>2021-07-12T09:35:11Z</time>
      </trkpt>
      <trkpt lat="47.527826512" lon="10.915160486">
        <ele>1981.4</ele>
        <time>2021-07-12T09:35:26Z</time>
      </trkpt>
      <trkpt lat="47.527879654" lon="10.915159229">
        <ele>1980.9</ele>
        <time>2021-07-12T09:35:42Z</time>
      </trkpt>
      <trkpt lat="47.527865488" lon="10.915106172">
        <ele>1979.5</ele>
        <time>2021-07-12T09:35:56Z</time>
      </trkpt>
      <trkpt lat="47.527814778" lon="10.915082367">
        <ele>1977.1</ele>
        <time>2021-07-12T09:36:05Z</time>
      </trkpt>
      <trkpt lat="47.527791141" lon="10.915022353">
        <ele>1974.2</ele>
        <time>2021-07-12T09:36:16Z</time>
      </trkpt>
      <trkpt lat="47.527838415" lon="10.914956220">
        <ele>1970.8</ele>
        <time>2021-07-12T09:36:28Z</time>
      </trkpt>
      <trkpt lat="47.527882922" lon="10.914843902">
        <ele>1968.4</ele>
        <time>2021-07-12T09:36:42Z</time>
      </trkpt>
      <trkpt lat="47.527826848" lon="10.914810207">
        <ele>1966.5</ele>
        <time>2021-07-12T09:36:49Z</time>
      </trkpt>
      <trkpt lat="47.527716206" lon="10.914835604">
        <ele>1963.6</ele>
        <time>2021-07-12T09:36:59Z</time>
      </trkpt>
      <trkpt lat="47.527692486" lon="10.914791850">
        <ele>1961.2</ele>
        <time>2021-07-12T09:37:08Z</time>
      </trkpt>
      <trkpt lat="47.527748393" lon="10.914625637">
        <ele>1955.0</ele>
        <time>2021-07-12T09:37:34Z</time>
      </trkpt>
      <trkpt lat="47.527760463" lon="10.914544249">
        <ele>1951.6</ele>
        <time>2021-07-12T09:37:46Z</time>
      </trkpt>
      <trkpt lat="47.527796002" lon="10.914467387">
        <ele>1948.7</ele>
        <time>2021-07-12T09:37:59Z</time>
      </trkpt>
      <trkpt lat="47.527798181" lon="10.914345346">
        <ele>1944.4</ele>
        <time>2021-07-12T09:38:26Z</time>
      </trkpt>
      <trkpt lat="47.527831290" lon="10.914259348">
        <ele>1941.0</ele>
        <time>2021-07-12T09:38:38Z</time>
      </trkpt>
      <trkpt lat="47.527881330" lon="10.914200842">
        <ele>1938.6</ele>
        <time>2021-07-12T09:38:54Z</time>
      </trkpt>
      <trkpt lat="47.527881078" lon="10.914167650">
        <ele>1936.2</ele>
        <time>2021-07-12T09:43:11Z</time>
      </trkpt>
      <trkpt lat="47.527890382" lon="10.914166141">
        <ele>1936.2</ele>
        <time>2021-07-12T09:43:25Z</time>
      </trkpt>
      <trkpt lat="47.527916450" lon="10.914154658">
        <ele>1936.2</ele>
        <time>2021-07-12T09:44:30Z</time>
      </trkpt>
      <trkpt lat="47.528004795" lon="10.913956258">
        <ele>1934.3</ele>
        <time>2021-07-12T09:44:50Z</time>
      </trkpt>
      <trkpt lat="47.527991803" lon="10.913625508">
        <ele>1926.1</ele>
        <time>2021-07-12T09:45:28Z</time>
      </trkpt>
      <trkpt lat="47.528116861" lon="10.913380757">
        <ele>1925.7</ele>
        <time>2021-07-12T09:45:55Z</time>
      </trkpt>
      <trkpt lat="47.528163046" lon="10.913172886">
        <ele>1926.1</ele>
        <time>2021-07-12T09:46:10Z</time>
      </trkpt>
      <trkpt lat="47.528225910" lon="10.913027376">
        <ele>1927.6</ele>
        <time>2021-07-12T09:46:24Z</time>
      </trkpt>
      <trkpt lat="47.528259018" lon="10.912892595">
        <ele>1927.6</ele>
        <time>2021-07-12T09:46:38Z</time>
      </trkpt>
      <trkpt lat="47.528225910" lon="10.912723532">
        <ele>1923.7</ele>
        <time>2021-07-12T09:47:02Z</time>
      </trkpt>
      <trkpt lat="47.528211409" lon="10.912496215">
        <ele>1916.5</ele>
        <time>2021-07-12T09:47:51Z</time>
      </trkpt>
      <trkpt lat="47.528174613" lon="10.912322206">
        <ele>1910.8</ele>
        <time>2021-07-12T09:48:21Z</time>
      </trkpt>
      <trkpt lat="47.528175199" lon="10.912193377">
        <ele>1907.9</ele>
        <time>2021-07-12T09:48:34Z</time>
      </trkpt>
      <trkpt lat="47.528188359" lon="10.912131015">
        <ele>1906.4</ele>
        <time>2021-07-12T09:48:42Z</time>
      </trkpt>
      <trkpt lat="47.528293719" lon="10.911993552">
        <ele>1906.4</ele>
        <time>2021-07-12T09:49:11Z</time>
      </trkpt>
      <trkpt lat="47.528408216" lon="10.911416290">
        <ele>1901.6</ele>
        <time>2021-07-12T09:50:03Z</time>
      </trkpt>
      <trkpt lat="47.528386507" lon="10.911305565">
        <ele>1900.2</ele>
        <time>2021-07-12T09:50:14Z</time>
      </trkpt>
      <trkpt lat="47.528420035" lon="10.910756048">
        <ele>1896.8</ele>
        <time>2021-07-12T09:50:59Z</time>
      </trkpt>
      <trkpt lat="47.528395979" lon="10.910609867">
        <ele>1895.9</ele>
        <time>2021-07-12T09:51:09Z</time>
      </trkpt>
      <trkpt lat="47.528372509" lon="10.910562342">
        <ele>1895.4</ele>
        <time>2021-07-12T09:51:13Z</time>
      </trkpt>
      <trkpt lat="47.528345520" lon="10.910185995">
        <ele>1890.6</ele>
        <time>2021-07-12T09:51:52Z</time>
      </trkpt>
      <trkpt lat="47.528287265" lon="10.910134697">
        <ele>1887.7</ele>
        <time>2021-07-12T09:52:21Z</time>
      </trkpt>
      <trkpt lat="47.528165560" lon="10.909912074">
        <ele>1877.6</ele>
        <time>2021-07-12T09:53:20Z</time>
      </trkpt>
      <trkpt lat="47.528122142" lon="10.909750722">
        <ele>1872.3</ele>
        <time>2021-07-12T09:53:50Z</time>
      </trkpt>
      <trkpt lat="47.528117364" lon="10.909620468">
        <ele>1871.3</ele>
        <time>2021-07-12T09:54:02Z</time>
      </trkpt>
      <trkpt lat="47.528131949" lon="10.909531284">
        <ele>1870.4</ele>
        <time>2021-07-12T09:54:15Z</time>
      </trkpt>
      <trkpt lat="47.528167488" lon="10.909474539">
        <ele>1871.8</ele>
        <time>2021-07-12T09:54:27Z</time>
      </trkpt>
      <trkpt lat="47.528201854" lon="10.909281755">
        <ele>1873.8</ele>
        <time>2021-07-12T09:54:44Z</time>
      </trkpt>
      <trkpt lat="47.528298162" lon="10.909041949">
        <ele>1875.7</ele>
        <time>2021-07-12T09:55:13Z</time>
      </trkpt>
      <trkpt lat="47.528305873" lon="10.908863582">
        <ele>1876.2</ele>
        <time>2021-07-12T09:55:29Z</time>
      </trkpt>
      <trkpt lat="47.528360942" lon="10.908507435">
        <ele>1877.1</ele>
        <time>2021-07-12T09:56:01Z</time>
      </trkpt>
      <trkpt lat="47.528438978" lon="10.908360248">
        <ele>1878.1</ele>
        <time>2021-07-12T09:56:20Z</time>
      </trkpt>
      <trkpt lat="47.528464794" lon="10.908085154">
        <ele>1877.6</ele>
        <time>2021-07-12T09:56:48Z</time>
      </trkpt>
      <trkpt lat="47.528456999" lon="10.907977782">
        <ele>1875.2</ele>
        <time>2021-07-12T09:57:01Z</time>
      </trkpt>
      <trkpt lat="47.528422214" lon="10.907915253">
        <ele>1873.8</ele>
        <time>2021-07-12T09:57:13Z</time>
      </trkpt>
      <trkpt lat="47.528379718" lon="10.907671759">
        <ele>1868.0</ele>
        <time>2021-07-12T09:57:42Z</time>
      </trkpt>
      <trkpt lat="47.528439648" lon="10.907529518">
        <ele>1862.7</ele>
        <time>2021-07-12T09:58:03Z</time>
      </trkpt>
      <trkpt lat="47.528496897" lon="10.907451399">
        <ele>1859.8</ele>
        <time>2021-07-12T09:58:17Z</time>
      </trkpt>
      <trkpt lat="47.528572334" lon="10.907506803">
        <ele>1856.4</ele>
        <time>2021-07-12T09:58:30Z</time>
      </trkpt>
      <trkpt lat="47.528639222" lon="10.907348720">
        <ele>1850.2</ele>
        <time>2021-07-12T09:58:55Z</time>
      </trkpt>
      <trkpt lat="47.528663026" lon="10.907361964">
        <ele>1847.8</ele>
        <time>2021-07-12T09:59:11Z</time>
      </trkpt>
      <trkpt lat="47.528675012" lon="10.907416530">
        <ele>1845.4</ele>
        <time>2021-07-12T09:59:38Z</time>
      </trkpt>
      <trkpt lat="47.528716670" lon="10.907417033">
        <ele>1843.0</ele>
        <time>2021-07-12T09:59:55Z</time>
      </trkpt>
      <trkpt lat="47.528774506" lon="10.907281162">
        <ele>1839.6</ele>
        <time>2021-07-12T10:00:06Z</time>
      </trkpt>
      <trkpt lat="47.528846003" lon="10.907240678">
        <ele>1836.7</ele>
        <time>2021-07-12T10:00:18Z</time>
      </trkpt>
      <trkpt lat="47.528825719" lon="10.907232799">
        <ele>1835.8</ele>
        <time>2021-07-12T10:02:03Z</time>
      </trkpt>
      <trkpt lat="47.528836615" lon="10.907240510">
        <ele>1835.8</ele>
        <time>2021-07-12T10:02:19Z</time>
      </trkpt>
      <trkpt lat="47.528821444" lon="10.907357354">
        <ele>1835.8</ele>
        <time>2021-07-12T10:02:34Z</time>
      </trkpt>
      <trkpt lat="47.528854050" lon="10.907397671">
        <ele>1832.9</ele>
        <time>2021-07-12T10:02:44Z</time>
      </trkpt>
      <trkpt lat="47.528865952" lon="10.907356013">
        <ele>1830.0</ele>
        <time>2021-07-12T10:02:56Z</time>
      </trkpt>
      <trkpt lat="47.528898139" lon="10.907404292">
        <ele>1827.1</ele>
        <time>2021-07-12T10:03:09Z</time>
      </trkpt>
      <trkpt lat="47.528979192" lon="10.907360539">
        <ele>1823.8</ele>
        <time>2021-07-12T10:03:25Z</time>
      </trkpt>
      <trkpt lat="47.528989501" lon="10.907428432">
        <ele>1821.3</ele>
        <time>2021-07-12T10:03:37Z</time>
      </trkpt>
      <trkpt lat="47.529072231" lon="10.907397252">
        <ele>1816.1</ele>
        <time>2021-07-12T10:03:57Z</time>
      </trkpt>
      <trkpt lat="47.529289190" lon="10.907192505">
        <ele>1806.3</ele>
        <time>2021-07-12T10:04:50Z</time>
      </trkpt>
      <trkpt lat="47.529324274" lon="10.906991316">
        <ele>1803.6</ele>
        <time>2021-07-12T10:05:54Z</time>
      </trkpt>
      <trkpt lat="47.529301275" lon="10.907006940">
        <ele>1796.8</ele>
        <time>2021-07-12T10:06:09Z</time>
      </trkpt>
      <trkpt lat="47.529323604" lon="10.906965835">
        <ele>1802.1</ele>
        <time>2021-07-12T10:06:22Z</time>
      </trkpt>
      <trkpt lat="47.529531224" lon="10.906993747">
        <ele>1793.0</ele>
        <time>2021-07-12T10:06:59Z</time>
      </trkpt>
      <trkpt lat="47.529644715" lon="10.907079326">
        <ele>1787.2</ele>
        <time>2021-07-12T10:07:46Z</time>
      </trkpt>
      <trkpt lat="47.529801624" lon="10.907068765">
        <ele>1781.0</ele>
        <time>2021-07-12T10:08:11Z</time>
      </trkpt>
      <trkpt lat="47.529831044" lon="10.907028783">
        <ele>1777.6</ele>
        <time>2021-07-12T10:08:25Z</time>
      </trkpt>
      <trkpt lat="47.529915953" lon="10.906869778">
        <ele>1771.4</ele>
        <time>2021-07-12T10:08:52Z</time>
      </trkpt>
      <trkpt lat="47.529926766" lon="10.906830635">
        <ele>1768.5</ele>
        <time>2021-07-12T10:09:12Z</time>
      </trkpt>
      <trkpt lat="47.530025085" lon="10.906828372">
        <ele>1763.2</ele>
        <time>2021-07-12T10:09:40Z</time>
      </trkpt>
      <trkpt lat="47.530071773" lon="10.906864749">
        <ele>1761.3</ele>
        <time>2021-07-12T10:09:49Z</time>
      </trkpt>
      <trkpt lat="47.530101026" lon="10.906730974">
        <ele>1756.5</ele>
        <time>2021-07-12T10:10:08Z</time>
      </trkpt>
      <trkpt lat="47.530211918" lon="10.906852428">
        <ele>1751.2</ele>
        <time>2021-07-12T10:10:30Z</time>
      </trkpt>
      <trkpt lat="47.530248463" lon="10.906967847">
        <ele>1751.2</ele>
        <time>2021-07-12T10:10:43Z</time>
      </trkpt>
      <trkpt lat="47.530284254" lon="10.907015288">
        <ele>1752.6</ele>
        <time>2021-07-12T10:11:01Z</time>
      </trkpt>
      <trkpt lat="47.530388357" lon="10.907046385">
        <ele>1751.7</ele>
        <time>2021-07-12T10:11:29Z</time>
      </trkpt>
      <trkpt lat="47.530422723" lon="10.907159038">
        <ele>1751.7</ele>
        <time>2021-07-12T10:11:44Z</time>
      </trkpt>
      <trkpt lat="47.530430937" lon="10.907337740">
        <ele>1746.8</ele>
        <time>2021-07-12T10:12:05Z</time>
      </trkpt>
      <trkpt lat="47.530465722" lon="10.907299770">
        <ele>1744.5</ele>
        <time>2021-07-12T10:12:18Z</time>
      </trkpt>
      <trkpt lat="47.530510565" lon="10.907341847">
        <ele>1741.6</ele>
        <time>2021-07-12T10:12:31Z</time>
      </trkpt>
      <trkpt lat="47.530559683" lon="10.907257274">
        <ele>1738.2</ele>
        <time>2021-07-12T10:12:45Z</time>
      </trkpt>
      <trkpt lat="47.530665966" lon="10.907224584">
        <ele>1734.4</ele>
        <time>2021-07-12T10:13:14Z</time>
      </trkpt>
      <trkpt lat="47.530691028" lon="10.907253251">
        <ele>1732.9</ele>
        <time>2021-07-12T10:13:31Z</time>
      </trkpt>
      <trkpt lat="47.530719359" lon="10.907251826">
        <ele>1732.4</ele>
        <time>2021-07-12T10:14:05Z</time>
      </trkpt>
      <trkpt lat="47.530768979" lon="10.907324413">
        <ele>1729.5</ele>
        <time>2021-07-12T10:14:37Z</time>
      </trkpt>
      <trkpt lat="47.530865623" lon="10.907215364">
        <ele>1722.3</ele>
        <time>2021-07-12T10:15:19Z</time>
      </trkpt>
      <trkpt lat="47.530904599" lon="10.907459697">
        <ele>1717.0</ele>
        <time>2021-07-12T10:15:50Z</time>
      </trkpt>
      <trkpt lat="47.530963775" lon="10.907544941">
        <ele>1715.1</ele>
        <time>2021-07-12T10:16:02Z</time>
      </trkpt>
      <trkpt lat="47.531027896" lon="10.907525076">
        <ele>1711.8</ele>
        <time>2021-07-12T10:16:17Z</time>
      </trkpt>
      <trkpt lat="47.531080367" lon="10.907551143">
        <ele>1708.9</ele>
        <time>2021-07-12T10:16:31Z</time>
      </trkpt>
      <trkpt lat="47.531142309" lon="10.907627083">
        <ele>1703.6</ele>
        <time>2021-07-12T10:16:59Z</time>
      </trkpt>
      <trkpt lat="47.531156559" lon="10.907685589">
        <ele>1701.7</ele>
        <time>2021-07-12T10:17:11Z</time>
      </trkpt>
      <trkpt lat="47.531193690" lon="10.907740071">
        <ele>1698.8</ele>
        <time>2021-07-12T10:17:29Z</time>
      </trkpt>
      <trkpt lat="47.531295279" lon="10.907796398">
        <ele>1692.1</ele>
        <time>2021-07-12T10:18:06Z</time>
      </trkpt>
      <trkpt lat="47.531258147" lon="10.907900333">
        <ele>1690.1</ele>
        <time>2021-07-12T10:19:43Z</time>
      </trkpt>
      <trkpt lat="47.531166617" lon="10.908014998">
        <ele>1686.8</ele>
        <time>2021-07-12T10:20:09Z</time>
      </trkpt>
      <trkpt lat="47.530926392" lon="10.908288583">
        <ele>1680.0</ele>
        <time>2021-07-12T10:20:47Z</time>
      </trkpt>
      <trkpt lat="47.531196205" lon="10.908227479">
        <ele>1675.2</ele>
        <time>2021-07-12T10:21:21Z</time>
      </trkpt>
      <trkpt lat="47.531139879" lon="10.908303084">
        <ele>1674.3</ele>
        <time>2021-07-12T10:21:28Z</time>
      </trkpt>
      <trkpt lat="47.531033512" lon="10.908362763">
        <ele>1672.8</ele>
        <time>2021-07-12T10:21:38Z</time>
      </trkpt>
      <trkpt lat="47.530942736" lon="10.908445492">
        <ele>1672.3</ele>
        <time>2021-07-12T10:21:48Z</time>
      </trkpt>
      <trkpt lat="47.530797226" lon="10.908611957">
        <ele>1670.4</ele>
        <time>2021-07-12T10:22:03Z</time>
      </trkpt>
      <trkpt lat="47.530790437" lon="10.908790240">
        <ele>1667.5</ele>
        <time>2021-07-12T10:22:16Z</time>
      </trkpt>
      <trkpt lat="47.530762501" lon="10.908959863">
        <ele>1667.3</ele>
      </trkpt>
      <trkpt lat="47.530722328" lon="10.909210843">
        <ele>1662.2</ele>
      </trkpt>
      <trkpt lat="47.530670951" lon="10.909594279">
        <ele>1654.8</ele>
      </trkpt>
      <trkpt lat="47.530797736" lon="10.909545738">
        <ele>1648.5</ele>
      </trkpt>
      <trkpt lat="47.530871228" lon="10.909455402">
        <ele>1646.8</ele>
      </trkpt>
      <trkpt lat="47.530990126" lon="10.909340143">
        <ele>1645.3</ele>
      </trkpt>
      <trkpt lat="47.531109024" lon="10.909224883">
        <ele>1646.7</ele>
      </trkpt>
      <trkpt lat="47.531209052" lon="10.909162083">
        <ele>1649.1</ele>
      </trkpt>
      <trkpt lat="47.531343946" lon="10.909166980">
        <ele>1650.0</ele>
      </trkpt>
      <trkpt lat="47.531241410" lon="10.909920581">
        <ele>1613.4</ele>
      </trkpt>
      <trkpt lat="47.531530953" lon="10.909824805">
        <ele>1609.7</ele>
      </trkpt>
      <trkpt lat="47.531522325" lon="10.910342663">
        <ele>1585.2</ele>
      </trkpt>
      <trkpt lat="47.531637021" lon="10.910479695">
        <ele>1576.3</ele>
      </trkpt>
      <trkpt lat="47.531701661" lon="10.910920497">
        <ele>1564.3</ele>
      </trkpt>
      <trkpt lat="47.531763505" lon="10.910989177">
        <ele>1560.0</ele>
      </trkpt>
      <trkpt lat="47.531902825" lon="10.910728509">
        <ele>1557.2</ele>
      </trkpt>
      <trkpt lat="47.532063480" lon="10.910496544">
        <ele>1562.3</ele>
        <time>2021-07-12T10:28:35Z</time>
      </trkpt>
      <trkpt lat="47.532112766" lon="10.910580447">
        <ele>1558.4</ele>
        <time>2021-07-12T10:28:49Z</time>
      </trkpt>
      <trkpt lat="47.532183090" lon="10.910631493">
        <ele>1555.1</ele>
        <time>2021-07-12T10:29:00Z</time>
      </trkpt>
      <trkpt lat="47.532229945" lon="10.910753282">
        <ele>1551.7</ele>
        <time>2021-07-12T10:29:11Z</time>
      </trkpt>
      <trkpt lat="47.532245619" lon="10.910969283">
        <ele>1545.9</ele>
        <time>2021-07-12T10:30:07Z</time>
      </trkpt>
      <trkpt lat="47.532266825" lon="10.910998452">
        <ele>1545.9</ele>
        <time>2021-07-12T10:30:16Z</time>
      </trkpt>
      <trkpt lat="47.532322900" lon="10.911181597">
        <ele>1544.0</ele>
        <time>2021-07-12T10:30:27Z</time>
      </trkpt>
      <trkpt lat="47.532398086" lon="10.911324425">
        <ele>1542.1</ele>
        <time>2021-07-12T10:30:37Z</time>
      </trkpt>
      <trkpt lat="47.532421807" lon="10.911316965">
        <ele>1541.6</ele>
        <time>2021-07-12T10:30:40Z</time>
      </trkpt>
      <trkpt lat="47.532460196" lon="10.911079925">
        <ele>1538.2</ele>
        <time>2021-07-12T10:30:55Z</time>
      </trkpt>
      <trkpt lat="47.532549296" lon="10.910828468">
        <ele>1534.9</ele>
        <time>2021-07-12T10:31:11Z</time>
      </trkpt>
      <trkpt lat="47.532623056" lon="10.910685388">
        <ele>1532.5</ele>
        <time>2021-07-12T10:31:22Z</time>
      </trkpt>
      <trkpt lat="47.532660523" lon="10.910983616">
        <ele>1528.2</ele>
        <time>2021-07-12T10:31:41Z</time>
      </trkpt>
      <trkpt lat="47.532691453" lon="10.911051761">
        <ele>1527.2</ele>
        <time>2021-07-12T10:31:46Z</time>
      </trkpt>
      <trkpt lat="47.532760939" lon="10.911135664">
        <ele>1524.8</ele>
        <time>2021-07-12T10:31:59Z</time>
      </trkpt>
      <trkpt lat="47.532753479" lon="10.910986969">
        <ele>1523.3</ele>
        <time>2021-07-12T10:32:09Z</time>
      </trkpt>
      <trkpt lat="47.532799160" lon="10.910896193">
        <ele>1520.0</ele>
        <time>2021-07-12T10:32:25Z</time>
      </trkpt>
      <trkpt lat="47.532821540" lon="10.910932990">
        <ele>1519.0</ele>
        <time>2021-07-12T10:32:31Z</time>
      </trkpt>
      <trkpt lat="47.532939584" lon="10.911151499">
        <ele>1498.3</ele>
        <time>2021-07-12T10:32:45Z</time>
      </trkpt>
      <trkpt lat="47.533006528" lon="10.910855960">
        <ele>1509.4</ele>
        <time>2021-07-12T10:33:08Z</time>
      </trkpt>
      <trkpt lat="47.533104932" lon="10.910790162">
        <ele>1503.6</ele>
        <time>2021-07-12T10:33:26Z</time>
      </trkpt>
      <trkpt lat="47.533204760" lon="10.910778176">
        <ele>1498.3</ele>
        <time>2021-07-12T10:33:51Z</time>
      </trkpt>
      <trkpt lat="47.533269804" lon="10.910722269">
        <ele>1495.0</ele>
        <time>2021-07-12T10:34:02Z</time>
      </trkpt>
      <trkpt lat="47.533351444" lon="10.910709612">
        <ele>1491.6</ele>
        <time>2021-07-12T10:34:15Z</time>
      </trkpt>
      <trkpt lat="47.533407686" lon="10.910663260">
        <ele>1488.3</ele>
        <time>2021-07-12T10:34:25Z</time>
      </trkpt>
      <trkpt lat="47.533445992" lon="10.910724532">
        <ele>1485.4</ele>
        <time>2021-07-12T10:34:40Z</time>
      </trkpt>
      <trkpt lat="47.533465689" lon="10.910652364">
        <ele>1483.5</ele>
        <time>2021-07-12T10:34:52Z</time>
      </trkpt>
      <trkpt lat="47.533465605" lon="10.910576843">
        <ele>1483.0</ele>
        <time>2021-07-12T10:34:58Z</time>
      </trkpt>
      <trkpt lat="47.533513466" lon="10.910517583">
        <ele>1481.5</ele>
        <time>2021-07-12T10:35:07Z</time>
      </trkpt>
      <trkpt lat="47.533514639" lon="10.910593104">
        <ele>1480.6</ele>
        <time>2021-07-12T10:35:12Z</time>
      </trkpt>
      <trkpt lat="47.533598458" lon="10.910665523">
        <ele>1479.1</ele>
        <time>2021-07-12T10:35:25Z</time>
      </trkpt>
      <trkpt lat="47.533587981" lon="10.910519594">
        <ele>1476.2</ele>
        <time>2021-07-12T10:35:41Z</time>
      </trkpt>
      <trkpt lat="47.533680014" lon="10.910622356">
        <ele>1474.8</ele>
        <time>2021-07-12T10:35:54Z</time>
      </trkpt>
      <trkpt lat="47.533692168" lon="10.910466621">
        <ele>1472.9</ele>
        <time>2021-07-12T10:36:06Z</time>
      </trkpt>
      <trkpt lat="47.533780094" lon="10.910620932">
        <ele>1469.5</ele>
        <time>2021-07-12T10:36:27Z</time>
      </trkpt>
      <trkpt lat="47.533769030" lon="10.910614394">
        <ele>1469.0</ele>
        <time>2021-07-12T10:37:30Z</time>
      </trkpt>
      <trkpt lat="47.533769365" lon="10.910463268">
        <ele>1468.5</ele>
        <time>2021-07-12T10:37:42Z</time>
      </trkpt>
      <trkpt lat="47.533853855" lon="10.910240561">
        <ele>1466.6</ele>
        <time>2021-07-12T10:37:57Z</time>
      </trkpt>
      <trkpt lat="47.534014452" lon="10.909723733">
        <ele>1460.9</ele>
        <time>2021-07-12T10:38:16Z</time>
      </trkpt>
      <trkpt lat="47.534207739" lon="10.909371525">
        <ele>1457.0</ele>
        <time>2021-07-12T10:38:29Z</time>
      </trkpt>
      <trkpt lat="47.534231460" lon="10.909423074">
        <ele>1455.6</ele>
        <time>2021-07-12T10:38:33Z</time>
      </trkpt>
      <trkpt lat="47.534237998" lon="10.909545869">
        <ele>1453.7</ele>
        <time>2021-07-12T10:38:38Z</time>
      </trkpt>
      <trkpt lat="47.534260126" lon="10.909592891">
        <ele>1450.8</ele>
        <time>2021-07-12T10:38:43Z</time>
      </trkpt>
      <trkpt lat="47.534352914" lon="10.909462720">
        <ele>1447.4</ele>
        <time>2021-07-12T10:38:54Z</time>
      </trkpt>
      <trkpt lat="47.534414018" lon="10.909337578">
        <ele>1445.0</ele>
        <time>2021-07-12T10:39:08Z</time>
      </trkpt>
      <trkpt lat="47.534440337" lon="10.909505216">
        <ele>1440.7</ele>
        <time>2021-07-12T10:39:31Z</time>
      </trkpt>
      <trkpt lat="47.534478894" lon="10.909439921">
        <ele>1439.7</ele>
        <time>2021-07-12T10:39:38Z</time>
      </trkpt>
      <trkpt lat="47.534486353" lon="10.909333052">
        <ele>1437.8</ele>
        <time>2021-07-12T10:39:46Z</time>
      </trkpt>
      <trkpt lat="47.534509906" lon="10.909318551">
        <ele>1435.4</ele>
        <time>2021-07-12T10:40:03Z</time>
      </trkpt>
      <trkpt lat="47.534566987" lon="10.909355599">
        <ele>1433.0</ele>
        <time>2021-07-12T10:40:23Z</time>
      </trkpt>
      <trkpt lat="47.534609065" lon="10.909170527">
        <ele>1430.6</ele>
        <time>2021-07-12T10:40:39Z</time>
      </trkpt>
      <trkpt lat="47.534586769" lon="10.908891912">
        <ele>1426.2</ele>
        <time>2021-07-12T10:40:58Z</time>
      </trkpt>
      <trkpt lat="47.534696991" lon="10.909150662">
        <ele>1421.9</ele>
        <time>2021-07-12T10:41:26Z</time>
      </trkpt>
      <trkpt lat="47.534783911" lon="10.909384014">
        <ele>1417.6</ele>
        <time>2021-07-12T10:41:52Z</time>
      </trkpt>
      <trkpt lat="47.534760693" lon="10.909381751">
        <ele>1417.1</ele>
        <time>2021-07-12T10:41:59Z</time>
      </trkpt>
      <trkpt lat="47.534754407" lon="10.909319557">
        <ele>1416.6</ele>
        <time>2021-07-12T10:42:03Z</time>
      </trkpt>
      <trkpt lat="47.534787515" lon="10.909189135">
        <ele>1415.2</ele>
        <time>2021-07-12T10:42:11Z</time>
      </trkpt>
      <trkpt lat="47.534733368" lon="10.908909263">
        <ele>1411.8</ele>
        <time>2021-07-12T10:42:26Z</time>
      </trkpt>
      <trkpt lat="47.534793718" lon="10.908769202">
        <ele>1409.0</ele>
        <time>2021-07-12T10:42:37Z</time>
      </trkpt>
      <trkpt lat="47.534852978" lon="10.908681694">
        <ele>1407.0</ele>
        <time>2021-07-12T10:42:43Z</time>
      </trkpt>
      <trkpt lat="47.534867562" lon="10.908838771">
        <ele>1403.2</ele>
        <time>2021-07-12T10:42:56Z</time>
      </trkpt>
      <trkpt lat="47.534995051" lon="10.908926446">
        <ele>1400.8</ele>
        <time>2021-07-12T10:43:11Z</time>
      </trkpt>
      <trkpt lat="47.535111057" lon="10.909156781">
        <ele>1398.9</ele>
        <time>2021-07-12T10:43:24Z</time>
      </trkpt>
      <trkpt lat="47.535206107" lon="10.909298183">
        <ele>1396.5</ele>
        <time>2021-07-12T10:43:38Z</time>
      </trkpt>
      <trkpt lat="47.535258746" lon="10.909224087">
        <ele>1394.5</ele>
        <time>2021-07-12T10:43:48Z</time>
      </trkpt>
      <trkpt lat="47.535248352" lon="10.908976905">
        <ele>1391.2</ele>
        <time>2021-07-12T10:44:05Z</time>
      </trkpt>
      <trkpt lat="47.535179202" lon="10.908901552">
        <ele>1390.2</ele>
        <time>2021-07-12T10:44:12Z</time>
      </trkpt>
      <trkpt lat="47.535147434" lon="10.908818906">
        <ele>1388.8</ele>
        <time>2021-07-12T10:44:17Z</time>
      </trkpt>
      <trkpt lat="47.535199570" lon="10.908717737">
        <ele>1385.9</ele>
        <time>2021-07-12T10:44:31Z</time>
      </trkpt>
      <trkpt lat="47.535251873" lon="10.908841370">
        <ele>1382.5</ele>
        <time>2021-07-12T10:44:42Z</time>
      </trkpt>
      <trkpt lat="47.535338793" lon="10.908844052">
        <ele>1380.1</ele>
        <time>2021-07-12T10:44:50Z</time>
      </trkpt>
      <trkpt lat="47.535468712" lon="10.908926697">
        <ele>1377.2</ele>
        <time>2021-07-12T10:45:02Z</time>
      </trkpt>
      <trkpt lat="47.535492182" lon="10.908908341">
        <ele>1375.8</ele>
        <time>2021-07-12T10:45:10Z</time>
      </trkpt>
      <trkpt lat="47.535375925" lon="10.908701727">
        <ele>1373.4</ele>
        <time>2021-07-12T10:45:27Z</time>
      </trkpt>
      <trkpt lat="47.535375087" lon="10.908607431">
        <ele>1371.9</ele>
        <time>2021-07-12T10:45:47Z</time>
      </trkpt>
      <trkpt lat="47.535393527" lon="10.908563761">
        <ele>1370.5</ele>
        <time>2021-07-12T10:46:11Z</time>
      </trkpt>
      <trkpt lat="47.535407105" lon="10.908397967">
        <ele>1369.0</ele>
        <time>2021-07-12T10:46:18Z</time>
      </trkpt>
      <trkpt lat="47.535551777" lon="10.908239801">
        <ele>1366.7</ele>
        <time>2021-07-12T10:46:29Z</time>
      </trkpt>
      <trkpt lat="47.535569631" lon="10.908229491">
        <ele>1366.2</ele>
        <time>2021-07-12T10:46:31Z</time>
      </trkpt>
      <trkpt lat="47.535529733" lon="10.908414312">
        <ele>1363.8</ele>
        <time>2021-07-12T10:46:40Z</time>
      </trkpt>
      <trkpt lat="47.535555465" lon="10.908551607">
        <ele>1362.8</ele>
        <time>2021-07-12T10:46:47Z</time>
      </trkpt>
      <trkpt lat="47.535604499" lon="10.908675576">
        <ele>1361.8</ele>
        <time>2021-07-12T10:46:54Z</time>
      </trkpt>
      <trkpt lat="47.535671471" lon="10.908710277">
        <ele>1359.4</ele>
        <time>2021-07-12T10:47:03Z</time>
      </trkpt>
      <trkpt lat="47.535681445" lon="10.908483965">
        <ele>1356.6</ele>
        <time>2021-07-12T10:47:16Z</time>
      </trkpt>
      <trkpt lat="47.535721930" lon="10.908311130">
        <ele>1353.7</ele>
        <time>2021-07-12T10:47:38Z</time>
      </trkpt>
      <trkpt lat="47.535784710" lon="10.908182384">
        <ele>1352.7</ele>
        <time>2021-07-12T10:47:45Z</time>
      </trkpt>
      <trkpt lat="47.535918485" lon="10.908074258">
        <ele>1349.8</ele>
        <time>2021-07-12T10:47:55Z</time>
      </trkpt>
      <trkpt lat="47.535896944" lon="10.908178193">
        <ele>1348.4</ele>
        <time>2021-07-12T10:48:00Z</time>
      </trkpt>
      <trkpt lat="47.535888059" lon="10.908364942">
        <ele>1345.0</ele>
        <time>2021-07-12T10:48:09Z</time>
      </trkpt>
      <trkpt lat="47.535942541" lon="10.908504249">
        <ele>1344.1</ele>
        <time>2021-07-12T10:48:16Z</time>
      </trkpt>
      <trkpt lat="47.535973052" lon="10.908545572">
        <ele>1343.6</ele>
        <time>2021-07-12T10:48:19Z</time>
      </trkpt>
      <trkpt lat="47.536015967" lon="10.908548841">
        <ele>1343.1</ele>
        <time>2021-07-12T10:48:23Z</time>
      </trkpt>
      <trkpt lat="47.536009094" lon="10.908417497">
        <ele>1340.7</ele>
        <time>2021-07-12T10:48:31Z</time>
      </trkpt>
      <trkpt lat="47.536083190" lon="10.908127483">
        <ele>1337.3</ele>
        <time>2021-07-12T10:48:44Z</time>
      </trkpt>
      <trkpt lat="47.536193076" lon="10.908004269">
        <ele>1335.4</ele>
        <time>2021-07-12T10:48:51Z</time>
      </trkpt>
      <trkpt lat="47.536216714" lon="10.907929754">
        <ele>1334.5</ele>
        <time>2021-07-12T10:48:55Z</time>
      </trkpt>
      <trkpt lat="47.536228783" lon="10.907945344">
        <ele>1334.0</ele>
        <time>2021-07-12T10:48:57Z</time>
      </trkpt>
      <trkpt lat="47.536199531" lon="10.908119855">
        <ele>1331.6</ele>
        <time>2021-07-12T10:49:06Z</time>
      </trkpt>
      <trkpt lat="47.536226269" lon="10.908221360">
        <ele>1330.6</ele>
        <time>2021-07-12T10:49:11Z</time>
      </trkpt>
      <trkpt lat="47.536277818" lon="10.908318004">
        <ele>1329.6</ele>
        <time>2021-07-12T10:49:15Z</time>
      </trkpt>
      <trkpt lat="47.536299778" lon="10.908258911">
        <ele>1328.7</ele>
        <time>2021-07-12T10:49:19Z</time>
      </trkpt>
      <trkpt lat="47.536317045" lon="10.908035198">
        <ele>1325.3</ele>
        <time>2021-07-12T10:49:28Z</time>
      </trkpt>
      <trkpt lat="47.536455262" lon="10.907777622">
        <ele>1322.0</ele>
        <time>2021-07-12T10:49:38Z</time>
      </trkpt>
      <trkpt lat="47.536466410" lon="10.907491632">
        <ele>1316.7</ele>
        <time>2021-07-12T10:49:57Z</time>
      </trkpt>
      <trkpt lat="47.536482587" lon="10.907544941">
        <ele>1314.7</ele>
        <time>2021-07-12T10:50:14Z</time>
      </trkpt>
      <trkpt lat="47.536502620" lon="10.907547791">
        <ele>1313.8</ele>
        <time>2021-07-12T10:50:53Z</time>
      </trkpt>
      <trkpt lat="47.536577806" lon="10.907749292">
        <ele>1312.8</ele>
        <time>2021-07-12T10:51:40Z</time>
      </trkpt>
      <trkpt lat="47.536586104" lon="10.907833362">
        <ele>1311.9</ele>
        <time>2021-07-12T10:51:44Z</time>
      </trkpt>
      <trkpt lat="47.536622146" lon="10.907958169">
        <ele>1310.4</ele>
        <time>2021-07-12T10:51:52Z</time>
      </trkpt>
      <trkpt lat="47.536669672" lon="10.908060931">
        <ele>1309.9</ele>
        <time>2021-07-12T10:52:00Z</time>
      </trkpt>
      <trkpt lat="47.536687609" lon="10.908057075">
        <ele>1309.5</ele>
        <time>2021-07-12T10:52:02Z</time>
      </trkpt>
      <trkpt lat="47.536710491" lon="10.907887425">
        <ele>1306.1</ele>
        <time>2021-07-12T10:52:15Z</time>
      </trkpt>
      <trkpt lat="47.536764136" lon="10.907814670">
        <ele>1304.2</ele>
        <time>2021-07-12T10:52:23Z</time>
      </trkpt>
      <trkpt lat="47.536766399" lon="10.907584839">
        <ele>1301.8</ele>
        <time>2021-07-12T10:52:37Z</time>
      </trkpt>
      <trkpt lat="47.536832783" lon="10.907483837">
        <ele>1298.4</ele>
        <time>2021-07-12T10:52:54Z</time>
      </trkpt>
      <trkpt lat="47.536892546" lon="10.907710483">
        <ele>1295.0</ele>
        <time>2021-07-12T10:53:10Z</time>
      </trkpt>
      <trkpt lat="47.536885254" lon="10.907770079">
        <ele>1294.1</ele>
        <time>2021-07-12T10:53:14Z</time>
      </trkpt>
      <trkpt lat="47.536947113" lon="10.907806959">
        <ele>1293.6</ele>
        <time>2021-07-12T10:53:22Z</time>
      </trkpt>
      <trkpt lat="47.536937976" lon="10.907737892">
        <ele>1292.6</ele>
        <time>2021-07-12T10:53:26Z</time>
      </trkpt>
      <trkpt lat="47.536995309" lon="10.907549383">
        <ele>1289.3</ele>
        <time>2021-07-12T10:53:37Z</time>
      </trkpt>
      <trkpt lat="47.537011821" lon="10.907306811">
        <ele>1286.4</ele>
        <time>2021-07-12T10:53:52Z</time>
      </trkpt>
      <trkpt lat="47.537038894" lon="10.907169348">
        <ele>1283.5</ele>
        <time>2021-07-12T10:54:08Z</time>
      </trkpt>
      <trkpt lat="47.537056999" lon="10.907295914">
        <ele>1281.1</ele>
        <time>2021-07-12T10:54:22Z</time>
      </trkpt>
      <trkpt lat="47.537088264" lon="10.907381996">
        <ele>1280.6</ele>
        <time>2021-07-12T10:54:26Z</time>
      </trkpt>
      <trkpt lat="47.537190355" lon="10.907468079">
        <ele>1279.7</ele>
        <time>2021-07-12T10:54:34Z</time>
      </trkpt>
      <trkpt lat="47.537224134" lon="10.907122157">
        <ele>1274.4</ele>
        <time>2021-07-12T10:54:58Z</time>
      </trkpt>
      <trkpt lat="47.537216255" lon="10.907010594">
        <ele>1273.4</ele>
        <time>2021-07-12T10:55:07Z</time>
      </trkpt>
      <trkpt lat="47.537251459" lon="10.906592086">
        <ele>1268.1</ele>
        <time>2021-07-12T10:55:35Z</time>
      </trkpt>
      <trkpt lat="47.537180548" lon="10.906311711">
        <ele>1265.2</ele>
        <time>2021-07-12T10:55:52Z</time>
      </trkpt>
      <trkpt lat="47.537146327" lon="10.906015844">
        <ele>1221.9</ele>
        <time>2021-07-12T10:56:13Z</time>
      </trkpt>
      <trkpt lat="47.537234048" lon="10.906151903">
        <ele>1219.3</ele>
        <time>2021-07-12T10:56:26Z</time>
      </trkpt>
      <trkpt lat="47.537322370" lon="10.906299138">
        <ele>1255.6</ele>
        <time>2021-07-12T10:56:44Z</time>
      </trkpt>
      <trkpt lat="47.537427898" lon="10.906563588">
        <ele>1252.2</ele>
        <time>2021-07-12T10:57:03Z</time>
      </trkpt>
      <trkpt lat="47.537687318" lon="10.906820828">
        <ele>1248.9</ele>
        <time>2021-07-12T10:57:26Z</time>
      </trkpt>
      <trkpt lat="47.537624789" lon="10.906508351">
        <ele>1244.1</ele>
        <time>2021-07-12T10:57:53Z</time>
      </trkpt>
      <trkpt lat="47.537577348" lon="10.906362170">
        <ele>1242.2</ele>
        <time>2021-07-12T10:58:06Z</time>
      </trkpt>
      <trkpt lat="47.537520602" lon="10.906101493">
        <ele>1238.8</ele>
        <time>2021-07-12T10:58:26Z</time>
      </trkpt>
      <trkpt lat="47.537476514" lon="10.905465139">
        <ele>1233.0</ele>
        <time>2021-07-12T10:59:06Z</time>
      </trkpt>
      <trkpt lat="47.537418343" lon="10.905175544">
        <ele>1230.1</ele>
        <time>2021-07-12T10:59:24Z</time>
      </trkpt>
      <trkpt lat="47.537239473" lon="10.904442631">
        <ele>1222.9</ele>
        <time>2021-07-12T11:00:10Z</time>
      </trkpt>
      <trkpt lat="47.537131598" lon="10.904154126">
        <ele>1219.6</ele>
        <time>2021-07-12T11:00:29Z</time>
      </trkpt>
      <trkpt lat="47.537082396" lon="10.903815497">
        <ele>1216.7</ele>
        <time>2021-07-12T11:00:50Z</time>
      </trkpt>
      <trkpt lat="47.536952142" lon="10.903537720">
        <ele>1213.8</ele>
        <time>2021-07-12T11:01:08Z</time>
      </trkpt>
      <trkpt lat="47.536886176" lon="10.903176544">
        <ele>1210.0</ele>
        <time>2021-07-12T11:02:27Z</time>
      </trkpt>
      <trkpt lat="47.536593564" lon="10.902418988">
        <ele>1202.3</ele>
        <time>2021-07-12T11:03:18Z</time>
      </trkpt>
      <trkpt lat="47.536511589" lon="10.902126208">
        <ele>1199.4</ele>
        <time>2021-07-12T11:03:36Z</time>
      </trkpt>
      <trkpt lat="47.536454927" lon="10.901850024">
        <ele>1197.9</ele>
        <time>2021-07-12T11:03:53Z</time>
      </trkpt>
      <trkpt lat="47.536327187" lon="10.901612816">
        <ele>1195.1</ele>
        <time>2021-07-12T11:04:12Z</time>
      </trkpt>
      <trkpt lat="47.536197268" lon="10.901289275">
        <ele>1191.7</ele>
        <time>2021-07-12T11:04:33Z</time>
      </trkpt>
      <trkpt lat="47.536126943" lon="10.900791977">
        <ele>1187.4</ele>
        <time>2021-07-12T11:05:07Z</time>
      </trkpt>
      <trkpt lat="47.536026109" lon="10.900429543">
        <ele>1184.0</ele>
        <time>2021-07-12T11:05:27Z</time>
      </trkpt>
      <trkpt lat="47.535977410" lon="10.900129722">
        <ele>1181.1</ele>
        <time>2021-07-12T11:05:51Z</time>
      </trkpt>
      <trkpt lat="47.535813879" lon="10.899704341">
        <ele>1176.8</ele>
        <time>2021-07-12T11:06:21Z</time>
      </trkpt>
      <trkpt lat="47.535727043" lon="10.899232356">
        <ele>1173.4</ele>
        <time>2021-07-12T11:06:55Z</time>
      </trkpt>
      <trkpt lat="47.535580862" lon="10.898984838">
        <ele>1169.6</ele>
        <time>2021-07-12T11:07:18Z</time>
      </trkpt>
      <trkpt lat="47.535504503" lon="10.898669176">
        <ele>1166.2</ele>
        <time>2021-07-12T11:07:37Z</time>
      </trkpt>
      <trkpt lat="47.535540210" lon="10.898426184">
        <ele>1163.8</ele>
        <time>2021-07-12T11:07:54Z</time>
      </trkpt>
      <trkpt lat="47.535630483" lon="10.898221079">
        <ele>1162.4</ele>
        <time>2021-07-12T11:08:11Z</time>
      </trkpt>
      <trkpt lat="47.535713632" lon="10.897901980">
        <ele>1159.5</ele>
        <time>2021-07-12T11:08:30Z</time>
      </trkpt>
      <trkpt lat="47.535696616" lon="10.897609368">
        <ele>1156.1</ele>
        <time>2021-07-12T11:08:50Z</time>
      </trkpt>
      <trkpt lat="47.535574660" lon="10.897205276">
        <ele>1151.8</ele>
        <time>2021-07-12T11:09:21Z</time>
      </trkpt>
      <trkpt lat="47.535443902" lon="10.897046020">
        <ele>1149.9</ele>
        <time>2021-07-12T11:09:38Z</time>
      </trkpt>
      <trkpt lat="47.535316832" lon="10.896835551">
        <ele>1147.5</ele>
        <time>2021-07-12T11:09:55Z</time>
      </trkpt>
      <trkpt lat="47.535258913" lon="10.896663386">
        <ele>1146.0</ele>
        <time>2021-07-12T11:10:06Z</time>
      </trkpt>
      <trkpt lat="47.535176100" lon="10.896541094">
        <ele>1145.1</ele>
        <time>2021-07-12T11:10:17Z</time>
      </trkpt>
      <trkpt lat="47.535016090" lon="10.896357531">
        <ele>1142.2</ele>
        <time>2021-07-12T11:10:36Z</time>
      </trkpt>
      <trkpt lat="47.534984657" lon="10.896150917">
        <ele>1140.7</ele>
        <time>2021-07-12T11:10:45Z</time>
      </trkpt>
      <trkpt lat="47.534995722" lon="10.896011442">
        <ele>1140.3</ele>
        <time>2021-07-12T11:10:54Z</time>
      </trkpt>
      <trkpt lat="47.534963954" lon="10.895716986">
        <ele>1139.8</ele>
        <time>2021-07-12T11:11:14Z</time>
      </trkpt>
      <trkpt lat="47.535045929" lon="10.895370310">
        <ele>1139.8</ele>
        <time>2021-07-12T11:11:35Z</time>
      </trkpt>
      <trkpt lat="47.535201749" lon="10.895121200">
        <ele>1139.3</ele>
        <time>2021-07-12T11:11:53Z</time>
      </trkpt>
      <trkpt lat="47.535448428" lon="10.894951550">
        <ele>1137.4</ele>
        <time>2021-07-12T11:12:15Z</time>
      </trkpt>
      <trkpt lat="47.535599638" lon="10.894698585">
        <ele>1135.9</ele>
        <time>2021-07-12T11:12:32Z</time>
      </trkpt>
      <trkpt lat="47.535972716" lon="10.892909467">
        <ele>1133.5</ele>
        <time>2021-07-12T11:14:04Z</time>
      </trkpt>
      <trkpt lat="47.535989899" lon="10.892454246">
        <ele>1133.5</ele>
        <time>2021-07-12T11:14:24Z</time>
      </trkpt>
      <trkpt lat="47.535955282" lon="10.892104972">
        <ele>1133.5</ele>
        <time>2021-07-12T11:14:41Z</time>
      </trkpt>
      <trkpt lat="47.535861572" lon="10.891836667">
        <ele>1134.0</ele>
        <time>2021-07-12T11:14:57Z</time>
      </trkpt>
      <trkpt lat="47.535322364" lon="10.891738515">
        <ele>1131.1</ele>
        <time>2021-07-12T11:15:35Z</time>
      </trkpt>
      <trkpt lat="47.535036541" lon="10.891748490">
        <ele>1129.2</ele>
        <time>2021-07-12T11:15:55Z</time>
      </trkpt>
      <trkpt lat="47.534835544" lon="10.891804984">
        <ele>1126.8</ele>
        <time>2021-07-12T11:16:10Z</time>
      </trkpt>
      <trkpt lat="47.534844764" lon="10.891659306">
        <ele>1125.4</ele>
        <time>2021-07-12T11:16:19Z</time>
      </trkpt>
      <trkpt lat="47.535048276" lon="10.891290754">
        <ele>1121.5</ele>
        <time>2021-07-12T11:16:58Z</time>
      </trkpt>
      <trkpt lat="47.535212645" lon="10.891148765">
        <ele>1122.0</ele>
        <time>2021-07-12T11:17:50Z</time>
      </trkpt>
      <trkpt lat="47.535411129" lon="10.891035106">
        <ele>1119.6</ele>
        <time>2021-07-12T11:18:08Z</time>
      </trkpt>
      <trkpt lat="47.535424917" lon="10.890965229">
        <ele>1088.5</ele>
        <time>2021-07-12T11:18:15Z</time>
      </trkpt>
      <trkpt lat="47.535482375" lon="10.890911557">
        <ele>1118.6</ele>
        <time>2021-07-12T11:18:20Z</time>
      </trkpt>
      <trkpt lat="47.535612294" lon="10.890742326">
        <ele>1118.2</ele>
        <time>2021-07-12T11:18:36Z</time>
      </trkpt>
      <trkpt lat="47.535837048" lon="10.890528276">
        <ele>1089.1</ele>
        <time>2021-07-12T11:19:04Z</time>
      </trkpt>
      <trkpt lat="47.536253426" lon="10.890224660">
        <ele>1113.8</ele>
        <time>2021-07-12T11:19:49Z</time>
      </trkpt>
      <trkpt lat="47.536529526" lon="10.889955014">
        <ele>1112.4</ele>
        <time>2021-07-12T11:20:20Z</time>
      </trkpt>
      <trkpt lat="47.536613094" lon="10.889805565">
        <ele>1111.9</ele>
        <time>2021-07-12T11:20:34Z</time>
      </trkpt>
      <trkpt lat="47.536689201" lon="10.889593251">
        <ele>1112.4</ele>
        <time>2021-07-12T11:20:49Z</time>
      </trkpt>
      <trkpt lat="47.536731865" lon="10.889317486">
        <ele>1113.8</ele>
        <time>2021-07-12T11:21:08Z</time>
      </trkpt>
      <trkpt lat="47.536680065" lon="10.889210030">
        <ele>1114.8</ele>
        <time>2021-07-12T11:21:22Z</time>
      </trkpt>
      <trkpt lat="47.536639161" lon="10.889179269">
        <ele>1117.2</ele>
        <time>2021-07-12T11:23:04Z</time>
      </trkpt>
    </trkseg>
  </trk>
</gpx>
